<?xml version="1.0" encoding="UTF-8" standalone="no" ?>
<gpx xmlns="http://www.topografix.com/GPX/1/1" xmlns:xsi="http://www.w3.org/2001/XMLSchema-instance" xsi:schemaLocation="http://www.topografix.com/GPX/1/1 http://www.topografix.com/GPX/1/1/gpx.xsd" version="1.1" creator="VisuGPX - https://www.visugpx.com">
  <metadata>
    <name>Le Fresne Camilly matin</name>
    <desc><![CDATA[Petite balade autour de Thaon, tracé du matin. 13 kms]]></desc>
  </metadata>
  <trk>
    <name><![CDATA[Le Fresne matin]]></name>
    <trkseg>
      <trkpt lat="49.26065" lon="-0.45575">
        <ele>65.99</ele>
        <time>2018-10-28T12:59:10Z</time>
      </trkpt>
      <trkpt lat="49.26065" lon="-0.45575">
        <ele>41.95</ele>
        <time>2018-10-28T12:59:11Z</time>
      </trkpt>
      <trkpt lat="49.26065" lon="-0.45575">
        <ele>41.95</ele>
        <time>2018-10-28T12:59:12Z</time>
      </trkpt>
      <trkpt lat="49.26065" lon="-0.45576">
        <ele>41.95</ele>
        <time>2018-10-28T12:59:15Z</time>
      </trkpt>
      <trkpt lat="49.26064" lon="-0.45578">
        <ele>40.99</ele>
        <time>2018-10-28T12:59:38Z</time>
      </trkpt>
      <trkpt lat="49.26063" lon="-0.45578">
        <ele>40.51</ele>
        <time>2018-10-28T12:59:40Z</time>
      </trkpt>
      <trkpt lat="49.26056" lon="-0.45592">
        <ele>40.51</ele>
        <time>2018-10-28T12:59:54Z</time>
      </trkpt>
      <trkpt lat="49.26064" lon="-0.45616">
        <ele>40.51</ele>
        <time>2018-10-28T13:00:08Z</time>
      </trkpt>
      <trkpt lat="49.26066" lon="-0.45625">
        <ele>42.44</ele>
        <time>2018-10-28T13:00:13Z</time>
      </trkpt>
      <trkpt lat="49.26068" lon="-0.45637">
        <ele>42.44</ele>
        <time>2018-10-28T13:00:21Z</time>
      </trkpt>
      <trkpt lat="49.26067" lon="-0.45648">
        <ele>43.4</ele>
        <time>2018-10-28T13:00:34Z</time>
      </trkpt>
      <trkpt lat="49.26067" lon="-0.45653">
        <ele>42.44</ele>
        <time>2018-10-28T13:00:42Z</time>
      </trkpt>
      <trkpt lat="49.26071" lon="-0.45662">
        <ele>43.4</ele>
        <time>2018-10-28T13:00:49Z</time>
      </trkpt>
      <trkpt lat="49.26086" lon="-0.45662">
        <ele>44.84</ele>
        <time>2018-10-28T13:01:02Z</time>
      </trkpt>
      <trkpt lat="49.26088" lon="-0.4566">
        <ele>45.8</ele>
        <time>2018-10-28T13:01:04Z</time>
      </trkpt>
      <trkpt lat="49.26093" lon="-0.45657">
        <ele>43.4</ele>
        <time>2018-10-28T13:01:08Z</time>
      </trkpt>
      <trkpt lat="49.26104" lon="-0.45647">
        <ele>44.84</ele>
        <time>2018-10-28T13:01:16Z</time>
      </trkpt>
      <trkpt lat="49.26113" lon="-0.45636">
        <ele>43.88</ele>
        <time>2018-10-28T13:01:26Z</time>
      </trkpt>
      <trkpt lat="49.2611" lon="-0.45604">
        <ele>44.36</ele>
        <time>2018-10-28T13:01:42Z</time>
      </trkpt>
      <trkpt lat="49.2611" lon="-0.45602">
        <ele>44.36</ele>
        <time>2018-10-28T13:01:43Z</time>
      </trkpt>
      <trkpt lat="49.26109" lon="-0.45594">
        <ele>44.36</ele>
        <time>2018-10-28T13:01:47Z</time>
      </trkpt>
      <trkpt lat="49.26105" lon="-0.45572">
        <ele>43.4</ele>
        <time>2018-10-28T13:01:59Z</time>
      </trkpt>
      <trkpt lat="49.26102" lon="-0.45557">
        <ele>42.92</ele>
        <time>2018-10-28T13:02:07Z</time>
      </trkpt>
      <trkpt lat="49.26102" lon="-0.45553">
        <ele>44.36</ele>
        <time>2018-10-28T13:02:09Z</time>
      </trkpt>
      <trkpt lat="49.26101" lon="-0.45548">
        <ele>42.44</ele>
        <time>2018-10-28T13:02:11Z</time>
      </trkpt>
      <trkpt lat="49.26095" lon="-0.45511">
        <ele>42.44</ele>
        <time>2018-10-28T13:02:30Z</time>
      </trkpt>
      <trkpt lat="49.26088" lon="-0.45475">
        <ele>40.51</ele>
        <time>2018-10-28T13:02:49Z</time>
      </trkpt>
      <trkpt lat="49.26086" lon="-0.45448">
        <ele>40.51</ele>
        <time>2018-10-28T13:03:02Z</time>
      </trkpt>
      <trkpt lat="49.26085" lon="-0.45436">
        <ele>40.03</ele>
        <time>2018-10-28T13:03:06Z</time>
      </trkpt>
      <trkpt lat="49.26077" lon="-0.45403">
        <ele>40.03</ele>
        <time>2018-10-28T13:03:21Z</time>
      </trkpt>
      <trkpt lat="49.26076" lon="-0.45396">
        <ele>37.63</ele>
        <time>2018-10-28T13:03:24Z</time>
      </trkpt>
      <trkpt lat="49.26072" lon="-0.45374">
        <ele>39.55</ele>
        <time>2018-10-28T13:03:35Z</time>
      </trkpt>
      <trkpt lat="49.26072" lon="-0.45366">
        <ele>39.55</ele>
        <time>2018-10-28T13:03:41Z</time>
      </trkpt>
      <trkpt lat="49.26069" lon="-0.45359">
        <ele>37.63</ele>
        <time>2018-10-28T13:03:44Z</time>
      </trkpt>
      <trkpt lat="49.26065" lon="-0.45323">
        <ele>36.67</ele>
        <time>2018-10-28T13:04:01Z</time>
      </trkpt>
      <trkpt lat="49.26059" lon="-0.45285">
        <ele>36.67</ele>
        <time>2018-10-28T13:04:19Z</time>
      </trkpt>
      <trkpt lat="49.26053" lon="-0.45243">
        <ele>35.71</ele>
        <time>2018-10-28T13:04:40Z</time>
      </trkpt>
      <trkpt lat="49.26044" lon="-0.45198">
        <ele>34.74</ele>
        <time>2018-10-28T13:05:01Z</time>
      </trkpt>
      <trkpt lat="49.26038" lon="-0.45163">
        <ele>34.26</ele>
        <time>2018-10-28T13:05:22Z</time>
      </trkpt>
      <trkpt lat="49.26031" lon="-0.45126">
        <ele>33.3</ele>
        <time>2018-10-28T13:05:38Z</time>
      </trkpt>
      <trkpt lat="49.26027" lon="-0.45097">
        <ele>31.86</ele>
        <time>2018-10-28T13:05:55Z</time>
      </trkpt>
      <trkpt lat="49.26026" lon="-0.45097">
        <ele>33.3</ele>
        <time>2018-10-28T13:05:58Z</time>
      </trkpt>
      <trkpt lat="49.26025" lon="-0.45091">
        <ele>31.86</ele>
        <time>2018-10-28T13:06:06Z</time>
      </trkpt>
      <trkpt lat="49.26027" lon="-0.45076">
        <ele>32.34</ele>
        <time>2018-10-28T13:06:13Z</time>
      </trkpt>
      <trkpt lat="49.26042" lon="-0.45076">
        <ele>31.86</ele>
        <time>2018-10-28T13:06:24Z</time>
      </trkpt>
      <trkpt lat="49.26058" lon="-0.45082">
        <ele>34.74</ele>
        <time>2018-10-28T13:06:36Z</time>
      </trkpt>
      <trkpt lat="49.26074" lon="-0.45073">
        <ele>34.74</ele>
        <time>2018-10-28T13:06:51Z</time>
      </trkpt>
      <trkpt lat="49.26097" lon="-0.45055">
        <ele>36.19</ele>
        <time>2018-10-28T13:07:08Z</time>
      </trkpt>
      <trkpt lat="49.26105" lon="-0.45049">
        <ele>37.63</ele>
        <time>2018-10-28T13:07:15Z</time>
      </trkpt>
      <trkpt lat="49.26108" lon="-0.45046">
        <ele>36.19</ele>
        <time>2018-10-28T13:07:18Z</time>
      </trkpt>
      <trkpt lat="49.26111" lon="-0.45043">
        <ele>34.74</ele>
        <time>2018-10-28T13:07:20Z</time>
      </trkpt>
      <trkpt lat="49.26137" lon="-0.45016">
        <ele>37.15</ele>
        <time>2018-10-28T13:07:41Z</time>
      </trkpt>
      <trkpt lat="49.26156" lon="-0.44996">
        <ele>37.63</ele>
        <time>2018-10-28T13:07:59Z</time>
      </trkpt>
      <trkpt lat="49.26174" lon="-0.44979">
        <ele>37.63</ele>
        <time>2018-10-28T13:08:14Z</time>
      </trkpt>
      <trkpt lat="49.26188" lon="-0.44963">
        <ele>38.59</ele>
        <time>2018-10-28T13:08:31Z</time>
      </trkpt>
      <trkpt lat="49.26208" lon="-0.44943">
        <ele>38.11</ele>
        <time>2018-10-28T13:08:48Z</time>
      </trkpt>
      <trkpt lat="49.26219" lon="-0.44934">
        <ele>37.15</ele>
        <time>2018-10-28T13:08:57Z</time>
      </trkpt>
      <trkpt lat="49.26222" lon="-0.44931">
        <ele>36.67</ele>
        <time>2018-10-28T13:08:59Z</time>
      </trkpt>
      <trkpt lat="49.2624" lon="-0.44917">
        <ele>36.19</ele>
        <time>2018-10-28T13:09:14Z</time>
      </trkpt>
      <trkpt lat="49.2626" lon="-0.44894">
        <ele>34.74</ele>
        <time>2018-10-28T13:09:30Z</time>
      </trkpt>
      <trkpt lat="49.26275" lon="-0.44878">
        <ele>34.26</ele>
        <time>2018-10-28T13:09:46Z</time>
      </trkpt>
      <trkpt lat="49.26295" lon="-0.44861">
        <ele>33.3</ele>
        <time>2018-10-28T13:10:03Z</time>
      </trkpt>
      <trkpt lat="49.26311" lon="-0.44843">
        <ele>31.38</ele>
        <time>2018-10-28T13:10:20Z</time>
      </trkpt>
      <trkpt lat="49.26329" lon="-0.44828">
        <ele>29.94</ele>
        <time>2018-10-28T13:10:35Z</time>
      </trkpt>
      <trkpt lat="49.26353" lon="-0.44827">
        <ele>28.02</ele>
        <time>2018-10-28T13:10:49Z</time>
      </trkpt>
      <trkpt lat="49.26356" lon="-0.44829">
        <ele>29.46</ele>
        <time>2018-10-28T13:10:53Z</time>
      </trkpt>
      <trkpt lat="49.2636" lon="-0.44829">
        <ele>29.46</ele>
        <time>2018-10-28T13:11:22Z</time>
      </trkpt>
      <trkpt lat="49.26364" lon="-0.44828">
        <ele>28.98</ele>
        <time>2018-10-28T13:11:47Z</time>
      </trkpt>
      <trkpt lat="49.26361" lon="-0.44829">
        <ele>27.05</ele>
        <time>2018-10-28T13:12:13Z</time>
      </trkpt>
      <trkpt lat="49.26358" lon="-0.44838">
        <ele>25.61</ele>
        <time>2018-10-28T13:12:26Z</time>
      </trkpt>
      <trkpt lat="49.26363" lon="-0.44854">
        <ele>24.17</ele>
        <time>2018-10-28T13:12:38Z</time>
      </trkpt>
      <trkpt lat="49.26369" lon="-0.44873">
        <ele>22.25</ele>
        <time>2018-10-28T13:12:50Z</time>
      </trkpt>
      <trkpt lat="49.26373" lon="-0.44894">
        <ele>20.32</ele>
        <time>2018-10-28T13:13:04Z</time>
      </trkpt>
      <trkpt lat="49.26375" lon="-0.44905">
        <ele>20.32</ele>
        <time>2018-10-28T13:13:09Z</time>
      </trkpt>
      <trkpt lat="49.26382" lon="-0.44936">
        <ele>18.88</ele>
        <time>2018-10-28T13:13:23Z</time>
      </trkpt>
      <trkpt lat="49.26383" lon="-0.44938">
        <ele>18.88</ele>
        <time>2018-10-28T13:13:24Z</time>
      </trkpt>
      <trkpt lat="49.2639" lon="-0.44962">
        <ele>17.44</ele>
        <time>2018-10-28T13:13:38Z</time>
      </trkpt>
      <trkpt lat="49.26396" lon="-0.44974">
        <ele>16.96</ele>
        <time>2018-10-28T13:13:45Z</time>
      </trkpt>
      <trkpt lat="49.26407" lon="-0.44999">
        <ele>16.96</ele>
        <time>2018-10-28T13:13:59Z</time>
      </trkpt>
      <trkpt lat="49.26421" lon="-0.45028">
        <ele>18.4</ele>
        <time>2018-10-28T13:14:15Z</time>
      </trkpt>
      <trkpt lat="49.26422" lon="-0.45027">
        <ele>18.4</ele>
        <time>2018-10-28T13:14:18Z</time>
      </trkpt>
      <trkpt lat="49.26431" lon="-0.4502">
        <ele>16.96</ele>
        <time>2018-10-28T13:14:26Z</time>
      </trkpt>
      <trkpt lat="49.26446" lon="-0.45014">
        <ele>18.4</ele>
        <time>2018-10-28T13:14:39Z</time>
      </trkpt>
      <trkpt lat="49.26451" lon="-0.45012">
        <ele>16.96</ele>
        <time>2018-10-28T13:14:43Z</time>
      </trkpt>
      <trkpt lat="49.26471" lon="-0.45007">
        <ele>16.48</ele>
        <time>2018-10-28T13:14:58Z</time>
      </trkpt>
      <trkpt lat="49.26497" lon="-0.45001">
        <ele>16</ele>
        <time>2018-10-28T13:15:16Z</time>
      </trkpt>
      <trkpt lat="49.26514" lon="-0.44994">
        <ele>16</ele>
        <time>2018-10-28T13:15:31Z</time>
      </trkpt>
      <trkpt lat="49.26521" lon="-0.44988">
        <ele>16</ele>
        <time>2018-10-28T13:15:36Z</time>
      </trkpt>
      <trkpt lat="49.26532" lon="-0.44988">
        <ele>16.96</ele>
        <time>2018-10-28T13:15:45Z</time>
      </trkpt>
      <trkpt lat="49.26553" lon="-0.44995">
        <ele>16.96</ele>
        <time>2018-10-28T13:16:02Z</time>
      </trkpt>
      <trkpt lat="49.26574" lon="-0.44996">
        <ele>15.52</ele>
        <time>2018-10-28T13:16:19Z</time>
      </trkpt>
      <trkpt lat="49.26586" lon="-0.44996">
        <ele>15.04</ele>
        <time>2018-10-28T13:16:32Z</time>
      </trkpt>
      <trkpt lat="49.26594" lon="-0.44994">
        <ele>16.48</ele>
        <time>2018-10-28T13:16:38Z</time>
      </trkpt>
      <trkpt lat="49.2661" lon="-0.44985">
        <ele>16.48</ele>
        <time>2018-10-28T13:16:51Z</time>
      </trkpt>
      <trkpt lat="49.26614" lon="-0.44981">
        <ele>15.52</ele>
        <time>2018-10-28T13:16:57Z</time>
      </trkpt>
      <trkpt lat="49.26619" lon="-0.44973">
        <ele>15.52</ele>
        <time>2018-10-28T13:17:02Z</time>
      </trkpt>
      <trkpt lat="49.2663" lon="-0.44953">
        <ele>15.04</ele>
        <time>2018-10-28T13:17:16Z</time>
      </trkpt>
      <trkpt lat="49.26634" lon="-0.44946">
        <ele>16.48</ele>
        <time>2018-10-28T13:17:21Z</time>
      </trkpt>
      <trkpt lat="49.26641" lon="-0.44928">
        <ele>16.48</ele>
        <time>2018-10-28T13:17:36Z</time>
      </trkpt>
      <trkpt lat="49.26652" lon="-0.44892">
        <ele>17.92</ele>
        <time>2018-10-28T13:17:53Z</time>
      </trkpt>
      <trkpt lat="49.2666" lon="-0.44874">
        <ele>17.92</ele>
        <time>2018-10-28T13:18:05Z</time>
      </trkpt>
      <trkpt lat="49.2667" lon="-0.44846">
        <ele>17.92</ele>
        <time>2018-10-28T13:18:18Z</time>
      </trkpt>
      <trkpt lat="49.26677" lon="-0.44816">
        <ele>18.4</ele>
        <time>2018-10-28T13:18:37Z</time>
      </trkpt>
      <trkpt lat="49.26686" lon="-0.44791">
        <ele>18.88</ele>
        <time>2018-10-28T13:18:52Z</time>
      </trkpt>
      <trkpt lat="49.26701" lon="-0.44759">
        <ele>18.4</ele>
        <time>2018-10-28T13:19:08Z</time>
      </trkpt>
      <trkpt lat="49.26716" lon="-0.44723">
        <ele>18.4</ele>
        <time>2018-10-28T13:19:27Z</time>
      </trkpt>
      <trkpt lat="49.26719" lon="-0.44716">
        <ele>18.4</ele>
        <time>2018-10-28T13:19:31Z</time>
      </trkpt>
      <trkpt lat="49.26726" lon="-0.44704">
        <ele>17.44</ele>
        <time>2018-10-28T13:19:38Z</time>
      </trkpt>
      <trkpt lat="49.2674" lon="-0.44677">
        <ele>16.96</ele>
        <time>2018-10-28T13:19:53Z</time>
      </trkpt>
      <trkpt lat="49.26749" lon="-0.44655">
        <ele>16.96</ele>
        <time>2018-10-28T13:20:07Z</time>
      </trkpt>
      <trkpt lat="49.26755" lon="-0.44641">
        <ele>16</ele>
        <time>2018-10-28T13:20:15Z</time>
      </trkpt>
      <trkpt lat="49.26767" lon="-0.44612">
        <ele>16</ele>
        <time>2018-10-28T13:20:31Z</time>
      </trkpt>
      <trkpt lat="49.26768" lon="-0.44602">
        <ele>16</ele>
        <time>2018-10-28T13:20:38Z</time>
      </trkpt>
      <trkpt lat="49.26768" lon="-0.44575">
        <ele>16</ele>
        <time>2018-10-28T13:20:53Z</time>
      </trkpt>
      <trkpt lat="49.26787" lon="-0.44556">
        <ele>16</ele>
        <time>2018-10-28T13:21:10Z</time>
      </trkpt>
      <trkpt lat="49.26806" lon="-0.44535">
        <ele>16</ele>
        <time>2018-10-28T13:21:27Z</time>
      </trkpt>
      <trkpt lat="49.26819" lon="-0.44513">
        <ele>14.56</ele>
        <time>2018-10-28T13:21:42Z</time>
      </trkpt>
      <trkpt lat="49.26827" lon="-0.44495">
        <ele>14.56</ele>
        <time>2018-10-28T13:21:56Z</time>
      </trkpt>
      <trkpt lat="49.26849" lon="-0.44469">
        <ele>14.56</ele>
        <time>2018-10-28T13:22:13Z</time>
      </trkpt>
      <trkpt lat="49.26858" lon="-0.44453">
        <ele>14.08</ele>
        <time>2018-10-28T13:22:28Z</time>
      </trkpt>
      <trkpt lat="49.26862" lon="-0.44449">
        <ele>15.52</ele>
        <time>2018-10-28T13:22:32Z</time>
      </trkpt>
      <trkpt lat="49.26886" lon="-0.44428">
        <ele>15.52</ele>
        <time>2018-10-28T13:22:47Z</time>
      </trkpt>
      <trkpt lat="49.26904" lon="-0.44416">
        <ele>15.52</ele>
        <time>2018-10-28T13:23:02Z</time>
      </trkpt>
      <trkpt lat="49.26921" lon="-0.44401">
        <ele>16.48</ele>
        <time>2018-10-28T13:23:18Z</time>
      </trkpt>
      <trkpt lat="49.26934" lon="-0.44389">
        <ele>16.48</ele>
        <time>2018-10-28T13:23:32Z</time>
      </trkpt>
      <trkpt lat="49.26941" lon="-0.44386">
        <ele>16.48</ele>
        <time>2018-10-28T13:23:36Z</time>
      </trkpt>
      <trkpt lat="49.26976" lon="-0.44377">
        <ele>16.96</ele>
        <time>2018-10-28T13:23:55Z</time>
      </trkpt>
      <trkpt lat="49.26977" lon="-0.44377">
        <ele>16.96</ele>
        <time>2018-10-28T13:23:56Z</time>
      </trkpt>
      <trkpt lat="49.27" lon="-0.4437">
        <ele>15.52</ele>
        <time>2018-10-28T13:24:14Z</time>
      </trkpt>
      <trkpt lat="49.27017" lon="-0.44364">
        <ele>15.04</ele>
        <time>2018-10-28T13:24:29Z</time>
      </trkpt>
      <trkpt lat="49.27024" lon="-0.44362">
        <ele>15.04</ele>
        <time>2018-10-28T13:24:55Z</time>
      </trkpt>
      <trkpt lat="49.27039" lon="-0.44355">
        <ele>14.56</ele>
        <time>2018-10-28T13:25:11Z</time>
      </trkpt>
      <trkpt lat="49.27065" lon="-0.44345">
        <ele>14.56</ele>
        <time>2018-10-28T13:25:30Z</time>
      </trkpt>
      <trkpt lat="49.27089" lon="-0.44337">
        <ele>14.08</ele>
        <time>2018-10-28T13:25:47Z</time>
      </trkpt>
      <trkpt lat="49.27107" lon="-0.44328">
        <ele>14.08</ele>
        <time>2018-10-28T13:26:02Z</time>
      </trkpt>
      <trkpt lat="49.27128" lon="-0.44317">
        <ele>13.12</ele>
        <time>2018-10-28T13:26:18Z</time>
      </trkpt>
      <trkpt lat="49.27151" lon="-0.44303">
        <ele>13.12</ele>
        <time>2018-10-28T13:26:34Z</time>
      </trkpt>
      <trkpt lat="49.27178" lon="-0.44295">
        <ele>13.12</ele>
        <time>2018-10-28T13:26:51Z</time>
      </trkpt>
      <trkpt lat="49.27181" lon="-0.44292">
        <ele>14.56</ele>
        <time>2018-10-28T13:26:54Z</time>
      </trkpt>
      <trkpt lat="49.27188" lon="-0.44285">
        <ele>14.56</ele>
        <time>2018-10-28T13:27:07Z</time>
      </trkpt>
      <trkpt lat="49.27189" lon="-0.44284">
        <ele>14.56</ele>
        <time>2018-10-28T13:27:10Z</time>
      </trkpt>
      <trkpt lat="49.27189" lon="-0.44276">
        <ele>14.56</ele>
        <time>2018-10-28T13:27:14Z</time>
      </trkpt>
      <trkpt lat="49.27187" lon="-0.44257">
        <ele>15.52</ele>
        <time>2018-10-28T13:27:24Z</time>
      </trkpt>
      <trkpt lat="49.27186" lon="-0.44237">
        <ele>15.04</ele>
        <time>2018-10-28T13:27:33Z</time>
      </trkpt>
      <trkpt lat="49.27186" lon="-0.4423">
        <ele>15.04</ele>
        <time>2018-10-28T13:27:37Z</time>
      </trkpt>
      <trkpt lat="49.2719" lon="-0.44225">
        <ele>15.04</ele>
        <time>2018-10-28T13:27:42Z</time>
      </trkpt>
      <trkpt lat="49.27189" lon="-0.44194">
        <ele>16.48</ele>
        <time>2018-10-28T13:27:58Z</time>
      </trkpt>
      <trkpt lat="49.27184" lon="-0.44159">
        <ele>16.48</ele>
        <time>2018-10-28T13:28:14Z</time>
      </trkpt>
      <trkpt lat="49.27181" lon="-0.44151">
        <ele>16.48</ele>
        <time>2018-10-28T13:28:19Z</time>
      </trkpt>
      <trkpt lat="49.27178" lon="-0.44125">
        <ele>15.04</ele>
        <time>2018-10-28T13:28:32Z</time>
      </trkpt>
      <trkpt lat="49.27173" lon="-0.44092">
        <ele>16</ele>
        <time>2018-10-28T13:28:48Z</time>
      </trkpt>
      <trkpt lat="49.27174" lon="-0.44072">
        <ele>16.48</ele>
        <time>2018-10-28T13:28:59Z</time>
      </trkpt>
      <trkpt lat="49.27177" lon="-0.44068">
        <ele>16.48</ele>
        <time>2018-10-28T13:29:03Z</time>
      </trkpt>
      <trkpt lat="49.27185" lon="-0.44057">
        <ele>16.48</ele>
        <time>2018-10-28T13:29:12Z</time>
      </trkpt>
      <trkpt lat="49.2719" lon="-0.4405">
        <ele>16.96</ele>
        <time>2018-10-28T13:29:17Z</time>
      </trkpt>
      <trkpt lat="49.27193" lon="-0.44046">
        <ele>16.96</ele>
        <time>2018-10-28T13:29:20Z</time>
      </trkpt>
      <trkpt lat="49.27193" lon="-0.44042">
        <ele>16.96</ele>
        <time>2018-10-28T13:29:22Z</time>
      </trkpt>
      <trkpt lat="49.27201" lon="-0.44028">
        <ele>17.44</ele>
        <time>2018-10-28T13:29:32Z</time>
      </trkpt>
      <trkpt lat="49.27207" lon="-0.44018">
        <ele>17.92</ele>
        <time>2018-10-28T13:29:39Z</time>
      </trkpt>
      <trkpt lat="49.27212" lon="-0.44014">
        <ele>17.92</ele>
        <time>2018-10-28T13:29:43Z</time>
      </trkpt>
      <trkpt lat="49.2722" lon="-0.44005">
        <ele>18.4</ele>
        <time>2018-10-28T13:29:51Z</time>
      </trkpt>
      <trkpt lat="49.2722" lon="-0.44005">
        <ele>18.4</ele>
        <time>2018-10-28T13:30:04Z</time>
      </trkpt>
      <trkpt lat="49.27223" lon="-0.44004">
        <ele>16.96</ele>
        <time>2018-10-28T13:30:12Z</time>
      </trkpt>
      <trkpt lat="49.27226" lon="-0.44005">
        <ele>18.4</ele>
        <time>2018-10-28T13:30:16Z</time>
      </trkpt>
      <trkpt lat="49.27238" lon="-0.44004">
        <ele>19.84</ele>
        <time>2018-10-28T13:30:29Z</time>
      </trkpt>
      <trkpt lat="49.27252" lon="-0.44006">
        <ele>21.77</ele>
        <time>2018-10-28T13:30:44Z</time>
      </trkpt>
      <trkpt lat="49.27271" lon="-0.44">
        <ele>24.17</ele>
        <time>2018-10-28T13:31:00Z</time>
      </trkpt>
      <trkpt lat="49.27285" lon="-0.43994">
        <ele>27.05</ele>
        <time>2018-10-28T13:31:15Z</time>
      </trkpt>
      <trkpt lat="49.27295" lon="-0.43993">
        <ele>28.5</ele>
        <time>2018-10-28T13:31:26Z</time>
      </trkpt>
      <trkpt lat="49.27297" lon="-0.43992">
        <ele>28.98</ele>
        <time>2018-10-28T13:31:30Z</time>
      </trkpt>
      <trkpt lat="49.27313" lon="-0.43994">
        <ele>32.34</ele>
        <time>2018-10-28T13:31:45Z</time>
      </trkpt>
      <trkpt lat="49.27326" lon="-0.43992">
        <ele>33.78</ele>
        <time>2018-10-28T13:32:00Z</time>
      </trkpt>
      <trkpt lat="49.27337" lon="-0.43991">
        <ele>34.26</ele>
        <time>2018-10-28T13:32:10Z</time>
      </trkpt>
      <trkpt lat="49.27344" lon="-0.43989">
        <ele>34.74</ele>
        <time>2018-10-28T13:32:16Z</time>
      </trkpt>
      <trkpt lat="49.27349" lon="-0.43985">
        <ele>34.74</ele>
        <time>2018-10-28T13:32:20Z</time>
      </trkpt>
      <trkpt lat="49.27378" lon="-0.4399">
        <ele>35.71</ele>
        <time>2018-10-28T13:32:38Z</time>
      </trkpt>
      <trkpt lat="49.27384" lon="-0.43992">
        <ele>40.51</ele>
        <time>2018-10-28T13:32:42Z</time>
      </trkpt>
      <trkpt lat="49.27385" lon="-0.43992">
        <ele>38.11</ele>
        <time>2018-10-28T13:32:43Z</time>
      </trkpt>
      <trkpt lat="49.27395" lon="-0.43998">
        <ele>38.59</ele>
        <time>2018-10-28T13:32:51Z</time>
      </trkpt>
      <trkpt lat="49.27397" lon="-0.44">
        <ele>37.15</ele>
        <time>2018-10-28T13:32:53Z</time>
      </trkpt>
      <trkpt lat="49.27413" lon="-0.44011">
        <ele>37.63</ele>
        <time>2018-10-28T13:33:06Z</time>
      </trkpt>
      <trkpt lat="49.27438" lon="-0.44018">
        <ele>38.59</ele>
        <time>2018-10-28T13:33:25Z</time>
      </trkpt>
      <trkpt lat="49.27451" lon="-0.44012">
        <ele>39.07</ele>
        <time>2018-10-28T13:33:40Z</time>
      </trkpt>
      <trkpt lat="49.27466" lon="-0.44007">
        <ele>40.51</ele>
        <time>2018-10-28T13:33:52Z</time>
      </trkpt>
      <trkpt lat="49.27478" lon="-0.44">
        <ele>39.07</ele>
        <time>2018-10-28T13:34:02Z</time>
      </trkpt>
      <trkpt lat="49.275" lon="-0.43988">
        <ele>38.59</ele>
        <time>2018-10-28T13:34:20Z</time>
      </trkpt>
      <trkpt lat="49.27519" lon="-0.43977">
        <ele>39.07</ele>
        <time>2018-10-28T13:34:37Z</time>
      </trkpt>
      <trkpt lat="49.27526" lon="-0.43973">
        <ele>41.47</ele>
        <time>2018-10-28T13:34:43Z</time>
      </trkpt>
      <trkpt lat="49.2753" lon="-0.43971">
        <ele>40.03</ele>
        <time>2018-10-28T13:34:46Z</time>
      </trkpt>
      <trkpt lat="49.27544" lon="-0.43963">
        <ele>41.47</ele>
        <time>2018-10-28T13:34:58Z</time>
      </trkpt>
      <trkpt lat="49.27556" lon="-0.43958">
        <ele>40.03</ele>
        <time>2018-10-28T13:35:08Z</time>
      </trkpt>
      <trkpt lat="49.27567" lon="-0.43953">
        <ele>40.51</ele>
        <time>2018-10-28T13:35:21Z</time>
      </trkpt>
      <trkpt lat="49.27588" lon="-0.43941">
        <ele>40.99</ele>
        <time>2018-10-28T13:35:38Z</time>
      </trkpt>
      <trkpt lat="49.27599" lon="-0.43936">
        <ele>42.44</ele>
        <time>2018-10-28T13:35:48Z</time>
      </trkpt>
      <trkpt lat="49.27602" lon="-0.43934">
        <ele>43.88</ele>
        <time>2018-10-28T13:35:51Z</time>
      </trkpt>
      <trkpt lat="49.27614" lon="-0.43928">
        <ele>42.92</ele>
        <time>2018-10-28T13:36:01Z</time>
      </trkpt>
      <trkpt lat="49.27633" lon="-0.43919">
        <ele>42.92</ele>
        <time>2018-10-28T13:36:15Z</time>
      </trkpt>
      <trkpt lat="49.27651" lon="-0.4391">
        <ele>41.47</ele>
        <time>2018-10-28T13:36:30Z</time>
      </trkpt>
      <trkpt lat="49.27656" lon="-0.43907">
        <ele>42.92</ele>
        <time>2018-10-28T13:36:35Z</time>
      </trkpt>
      <trkpt lat="49.27663" lon="-0.43903">
        <ele>41.47</ele>
        <time>2018-10-28T13:36:40Z</time>
      </trkpt>
      <trkpt lat="49.27676" lon="-0.43893">
        <ele>39.55</ele>
        <time>2018-10-28T13:36:56Z</time>
      </trkpt>
      <trkpt lat="49.27676" lon="-0.43893">
        <ele>40.99</ele>
        <time>2018-10-28T13:37:02Z</time>
      </trkpt>
      <trkpt lat="49.27675" lon="-0.43892">
        <ele>40.99</ele>
        <time>2018-10-28T13:37:34Z</time>
      </trkpt>
      <trkpt lat="49.27675" lon="-0.43892">
        <ele>42.44</ele>
        <time>2018-10-28T13:37:38Z</time>
      </trkpt>
      <trkpt lat="49.27675" lon="-0.43892">
        <ele>40.99</ele>
        <time>2018-10-28T13:37:48Z</time>
      </trkpt>
      <trkpt lat="49.27675" lon="-0.43893">
        <ele>40.03</ele>
        <time>2018-10-28T13:38:02Z</time>
      </trkpt>
      <trkpt lat="49.27675" lon="-0.43893">
        <ele>41.47</ele>
        <time>2018-10-28T13:38:06Z</time>
      </trkpt>
      <trkpt lat="49.27674" lon="-0.43894">
        <ele>40.51</ele>
        <time>2018-10-28T13:38:15Z</time>
      </trkpt>
      <trkpt lat="49.27677" lon="-0.43892">
        <ele>37.63</ele>
        <time>2018-10-28T13:38:19Z</time>
      </trkpt>
      <trkpt lat="49.2769" lon="-0.43884">
        <ele>37.15</ele>
        <time>2018-10-28T13:38:34Z</time>
      </trkpt>
      <trkpt lat="49.27693" lon="-0.43882">
        <ele>41.47</ele>
        <time>2018-10-28T13:38:37Z</time>
      </trkpt>
      <trkpt lat="49.27694" lon="-0.43882">
        <ele>41.47</ele>
        <time>2018-10-28T13:38:38Z</time>
      </trkpt>
      <trkpt lat="49.27699" lon="-0.43878">
        <ele>40.03</ele>
        <time>2018-10-28T13:38:43Z</time>
      </trkpt>
      <trkpt lat="49.27704" lon="-0.43875">
        <ele>41.47</ele>
        <time>2018-10-28T13:38:47Z</time>
      </trkpt>
      <trkpt lat="49.27706" lon="-0.43874">
        <ele>34.74</ele>
        <time>2018-10-28T13:38:48Z</time>
      </trkpt>
      <trkpt lat="49.27706" lon="-0.43874">
        <ele>34.74</ele>
        <time>2018-10-28T13:38:49Z</time>
      </trkpt>
      <trkpt lat="49.27709" lon="-0.43871">
        <ele>36.19</ele>
        <time>2018-10-28T13:38:52Z</time>
      </trkpt>
      <trkpt lat="49.2772" lon="-0.43862">
        <ele>42.92</ele>
        <time>2018-10-28T13:39:02Z</time>
      </trkpt>
      <trkpt lat="49.27721" lon="-0.43862">
        <ele>42.44</ele>
        <time>2018-10-28T13:39:03Z</time>
      </trkpt>
      <trkpt lat="49.2773" lon="-0.43853">
        <ele>39.07</ele>
        <time>2018-10-28T13:39:12Z</time>
      </trkpt>
      <trkpt lat="49.27735" lon="-0.43849">
        <ele>41.95</ele>
        <time>2018-10-28T13:39:16Z</time>
      </trkpt>
      <trkpt lat="49.27737" lon="-0.43847">
        <ele>40.51</ele>
        <time>2018-10-28T13:39:18Z</time>
      </trkpt>
      <trkpt lat="49.27746" lon="-0.43839">
        <ele>40.99</ele>
        <time>2018-10-28T13:39:26Z</time>
      </trkpt>
      <trkpt lat="49.27762" lon="-0.43824">
        <ele>42.92</ele>
        <time>2018-10-28T13:39:42Z</time>
      </trkpt>
      <trkpt lat="49.27784" lon="-0.43806">
        <ele>43.4</ele>
        <time>2018-10-28T13:40:01Z</time>
      </trkpt>
      <trkpt lat="49.27803" lon="-0.43791">
        <ele>43.4</ele>
        <time>2018-10-28T13:40:19Z</time>
      </trkpt>
      <trkpt lat="49.27804" lon="-0.4379">
        <ele>43.4</ele>
        <time>2018-10-28T13:40:20Z</time>
      </trkpt>
      <trkpt lat="49.27817" lon="-0.43781">
        <ele>42.92</ele>
        <time>2018-10-28T13:40:31Z</time>
      </trkpt>
      <trkpt lat="49.27823" lon="-0.43777">
        <ele>44.84</ele>
        <time>2018-10-28T13:40:37Z</time>
      </trkpt>
      <trkpt lat="49.27835" lon="-0.4377">
        <ele>44.36</ele>
        <time>2018-10-28T13:40:48Z</time>
      </trkpt>
      <trkpt lat="49.27847" lon="-0.43762">
        <ele>45.8</ele>
        <time>2018-10-28T13:40:59Z</time>
      </trkpt>
      <trkpt lat="49.27857" lon="-0.43756">
        <ele>43.88</ele>
        <time>2018-10-28T13:41:07Z</time>
      </trkpt>
      <trkpt lat="49.27865" lon="-0.4375">
        <ele>45.8</ele>
        <time>2018-10-28T13:41:14Z</time>
      </trkpt>
      <trkpt lat="49.27888" lon="-0.43736">
        <ele>46.76</ele>
        <time>2018-10-28T13:41:34Z</time>
      </trkpt>
      <trkpt lat="49.27889" lon="-0.43735">
        <ele>46.76</ele>
        <time>2018-10-28T13:41:35Z</time>
      </trkpt>
      <trkpt lat="49.27899" lon="-0.43729">
        <ele>48.68</ele>
        <time>2018-10-28T13:41:44Z</time>
      </trkpt>
      <trkpt lat="49.27908" lon="-0.43724">
        <ele>47.72</ele>
        <time>2018-10-28T13:41:52Z</time>
      </trkpt>
      <trkpt lat="49.27931" lon="-0.43712">
        <ele>47.72</ele>
        <time>2018-10-28T13:42:13Z</time>
      </trkpt>
      <trkpt lat="49.27949" lon="-0.43704">
        <ele>46.28</ele>
        <time>2018-10-28T13:42:27Z</time>
      </trkpt>
      <trkpt lat="49.27968" lon="-0.43694">
        <ele>48.68</ele>
        <time>2018-10-28T13:42:44Z</time>
      </trkpt>
      <trkpt lat="49.27991" lon="-0.43685">
        <ele>49.16</ele>
        <time>2018-10-28T13:43:02Z</time>
      </trkpt>
      <trkpt lat="49.28008" lon="-0.43677">
        <ele>49.65</ele>
        <time>2018-10-28T13:43:18Z</time>
      </trkpt>
      <trkpt lat="49.28028" lon="-0.43669">
        <ele>49.65</ele>
        <time>2018-10-28T13:43:35Z</time>
      </trkpt>
      <trkpt lat="49.28029" lon="-0.43668">
        <ele>49.65</ele>
        <time>2018-10-28T13:43:36Z</time>
      </trkpt>
      <trkpt lat="49.28048" lon="-0.43662">
        <ele>49.65</ele>
        <time>2018-10-28T13:43:52Z</time>
      </trkpt>
      <trkpt lat="49.28051" lon="-0.43661">
        <ele>48.2</ele>
        <time>2018-10-28T13:43:54Z</time>
      </trkpt>
      <trkpt lat="49.28064" lon="-0.43656">
        <ele>49.16</ele>
        <time>2018-10-28T13:44:05Z</time>
      </trkpt>
      <trkpt lat="49.28087" lon="-0.43648">
        <ele>51.09</ele>
        <time>2018-10-28T13:44:24Z</time>
      </trkpt>
      <trkpt lat="49.28105" lon="-0.43645">
        <ele>52.53</ele>
        <time>2018-10-28T13:44:38Z</time>
      </trkpt>
      <trkpt lat="49.28114" lon="-0.43643">
        <ele>51.57</ele>
        <time>2018-10-28T13:44:45Z</time>
      </trkpt>
      <trkpt lat="49.28121" lon="-0.43642">
        <ele>53.01</ele>
        <time>2018-10-28T13:44:50Z</time>
      </trkpt>
      <trkpt lat="49.28145" lon="-0.43637">
        <ele>51.09</ele>
        <time>2018-10-28T13:45:10Z</time>
      </trkpt>
      <trkpt lat="49.28152" lon="-0.43636">
        <ele>52.53</ele>
        <time>2018-10-28T13:45:18Z</time>
      </trkpt>
      <trkpt lat="49.28178" lon="-0.43632">
        <ele>51.09</ele>
        <time>2018-10-28T13:45:38Z</time>
      </trkpt>
      <trkpt lat="49.28187" lon="-0.43631">
        <ele>53.49</ele>
        <time>2018-10-28T13:45:45Z</time>
      </trkpt>
      <trkpt lat="49.28195" lon="-0.4363">
        <ele>51.57</ele>
        <time>2018-10-28T13:45:51Z</time>
      </trkpt>
      <trkpt lat="49.28201" lon="-0.43629">
        <ele>53.01</ele>
        <time>2018-10-28T13:45:56Z</time>
      </trkpt>
      <trkpt lat="49.28203" lon="-0.43629">
        <ele>51.57</ele>
        <time>2018-10-28T13:45:58Z</time>
      </trkpt>
      <trkpt lat="49.2821" lon="-0.43628">
        <ele>53.49</ele>
        <time>2018-10-28T13:46:04Z</time>
      </trkpt>
      <trkpt lat="49.28219" lon="-0.43626">
        <ele>53.97</ele>
        <time>2018-10-28T13:46:11Z</time>
      </trkpt>
      <trkpt lat="49.2824" lon="-0.43623">
        <ele>56.86</ele>
        <time>2018-10-28T13:46:28Z</time>
      </trkpt>
      <trkpt lat="49.28266" lon="-0.4362">
        <ele>53.97</ele>
        <time>2018-10-28T13:46:48Z</time>
      </trkpt>
      <trkpt lat="49.28273" lon="-0.43619">
        <ele>54.93</ele>
        <time>2018-10-28T13:46:53Z</time>
      </trkpt>
      <trkpt lat="49.28288" lon="-0.43615">
        <ele>53.97</ele>
        <time>2018-10-28T13:47:05Z</time>
      </trkpt>
      <trkpt lat="49.28293" lon="-0.43615">
        <ele>53.49</ele>
        <time>2018-10-28T13:47:10Z</time>
      </trkpt>
      <trkpt lat="49.28299" lon="-0.43621">
        <ele>54.93</ele>
        <time>2018-10-28T13:47:16Z</time>
      </trkpt>
      <trkpt lat="49.2831" lon="-0.43634">
        <ele>54.45</ele>
        <time>2018-10-28T13:47:29Z</time>
      </trkpt>
      <trkpt lat="49.28325" lon="-0.43653">
        <ele>56.37</ele>
        <time>2018-10-28T13:47:44Z</time>
      </trkpt>
      <trkpt lat="49.28329" lon="-0.43657">
        <ele>54.93</ele>
        <time>2018-10-28T13:47:48Z</time>
      </trkpt>
      <trkpt lat="49.28348" lon="-0.43676">
        <ele>54.45</ele>
        <time>2018-10-28T13:48:04Z</time>
      </trkpt>
      <trkpt lat="49.28352" lon="-0.4368">
        <ele>53.49</ele>
        <time>2018-10-28T13:48:08Z</time>
      </trkpt>
      <trkpt lat="49.28355" lon="-0.43683">
        <ele>54.93</ele>
        <time>2018-10-28T13:48:10Z</time>
      </trkpt>
      <trkpt lat="49.28365" lon="-0.43697">
        <ele>53.49</ele>
        <time>2018-10-28T13:48:22Z</time>
      </trkpt>
      <trkpt lat="49.28365" lon="-0.43699">
        <ele>53.49</ele>
        <time>2018-10-28T13:48:29Z</time>
      </trkpt>
      <trkpt lat="49.28366" lon="-0.43705">
        <ele>53.49</ele>
        <time>2018-10-28T13:48:33Z</time>
      </trkpt>
      <trkpt lat="49.28367" lon="-0.43737">
        <ele>51.57</ele>
        <time>2018-10-28T13:48:50Z</time>
      </trkpt>
      <trkpt lat="49.28368" lon="-0.43745">
        <ele>53.01</ele>
        <time>2018-10-28T13:48:55Z</time>
      </trkpt>
      <trkpt lat="49.2837" lon="-0.43766">
        <ele>52.05</ele>
        <time>2018-10-28T13:49:06Z</time>
      </trkpt>
      <trkpt lat="49.28373" lon="-0.43803">
        <ele>52.53</ele>
        <time>2018-10-28T13:49:23Z</time>
      </trkpt>
      <trkpt lat="49.28374" lon="-0.43823">
        <ele>52.05</ele>
        <time>2018-10-28T13:49:33Z</time>
      </trkpt>
      <trkpt lat="49.28378" lon="-0.43861">
        <ele>51.57</ele>
        <time>2018-10-28T13:49:51Z</time>
      </trkpt>
      <trkpt lat="49.28379" lon="-0.43869">
        <ele>51.57</ele>
        <time>2018-10-28T13:49:57Z</time>
      </trkpt>
      <trkpt lat="49.28384" lon="-0.43902">
        <ele>51.09</ele>
        <time>2018-10-28T13:50:16Z</time>
      </trkpt>
      <trkpt lat="49.28387" lon="-0.43936">
        <ele>51.57</ele>
        <time>2018-10-28T13:50:33Z</time>
      </trkpt>
      <trkpt lat="49.28391" lon="-0.43969">
        <ele>50.61</ele>
        <time>2018-10-28T13:50:51Z</time>
      </trkpt>
      <trkpt lat="49.28395" lon="-0.4399">
        <ele>51.09</ele>
        <time>2018-10-28T13:51:03Z</time>
      </trkpt>
      <trkpt lat="49.28397" lon="-0.44004">
        <ele>49.65</ele>
        <time>2018-10-28T13:51:10Z</time>
      </trkpt>
      <trkpt lat="49.28403" lon="-0.44036">
        <ele>48.68</ele>
        <time>2018-10-28T13:51:28Z</time>
      </trkpt>
      <trkpt lat="49.28405" lon="-0.4405">
        <ele>48.68</ele>
        <time>2018-10-28T13:51:49Z</time>
      </trkpt>
      <trkpt lat="49.28407" lon="-0.44069">
        <ele>49.65</ele>
        <time>2018-10-28T13:51:58Z</time>
      </trkpt>
      <trkpt lat="49.2841" lon="-0.44084">
        <ele>48.2</ele>
        <time>2018-10-28T13:52:06Z</time>
      </trkpt>
      <trkpt lat="49.2841" lon="-0.44111">
        <ele>47.24</ele>
        <time>2018-10-28T13:52:19Z</time>
      </trkpt>
      <trkpt lat="49.28407" lon="-0.44151">
        <ele>46.28</ele>
        <time>2018-10-28T13:52:40Z</time>
      </trkpt>
      <trkpt lat="49.28402" lon="-0.44179">
        <ele>45.32</ele>
        <time>2018-10-28T13:52:56Z</time>
      </trkpt>
      <trkpt lat="49.28398" lon="-0.44206">
        <ele>45.8</ele>
        <time>2018-10-28T13:53:11Z</time>
      </trkpt>
      <trkpt lat="49.28398" lon="-0.4421">
        <ele>44.36</ele>
        <time>2018-10-28T13:53:13Z</time>
      </trkpt>
      <trkpt lat="49.28394" lon="-0.44236">
        <ele>43.4</ele>
        <time>2018-10-28T13:53:27Z</time>
      </trkpt>
      <trkpt lat="49.28393" lon="-0.44246">
        <ele>45.8</ele>
        <time>2018-10-28T13:53:32Z</time>
      </trkpt>
      <trkpt lat="49.28393" lon="-0.44251">
        <ele>43.4</ele>
        <time>2018-10-28T13:53:34Z</time>
      </trkpt>
      <trkpt lat="49.28392" lon="-0.44259">
        <ele>45.8</ele>
        <time>2018-10-28T13:53:38Z</time>
      </trkpt>
      <trkpt lat="49.28391" lon="-0.44264">
        <ele>43.88</ele>
        <time>2018-10-28T13:53:41Z</time>
      </trkpt>
      <trkpt lat="49.28391" lon="-0.44269">
        <ele>45.32</ele>
        <time>2018-10-28T13:53:44Z</time>
      </trkpt>
      <trkpt lat="49.2839" lon="-0.44274">
        <ele>43.4</ele>
        <time>2018-10-28T13:53:47Z</time>
      </trkpt>
      <trkpt lat="49.2839" lon="-0.44282">
        <ele>45.32</ele>
        <time>2018-10-28T13:53:51Z</time>
      </trkpt>
      <trkpt lat="49.28389" lon="-0.44289">
        <ele>42.92</ele>
        <time>2018-10-28T13:53:55Z</time>
      </trkpt>
      <trkpt lat="49.28389" lon="-0.44294">
        <ele>40.03</ele>
        <time>2018-10-28T13:53:58Z</time>
      </trkpt>
      <trkpt lat="49.28388" lon="-0.443">
        <ele>41.95</ele>
        <time>2018-10-28T13:54:01Z</time>
      </trkpt>
      <trkpt lat="49.28388" lon="-0.4431">
        <ele>41.47</ele>
        <time>2018-10-28T13:54:06Z</time>
      </trkpt>
      <trkpt lat="49.28388" lon="-0.44324">
        <ele>41.95</ele>
        <time>2018-10-28T13:54:20Z</time>
      </trkpt>
      <trkpt lat="49.28388" lon="-0.44328">
        <ele>42.92</ele>
        <time>2018-10-28T13:54:26Z</time>
      </trkpt>
      <trkpt lat="49.28385" lon="-0.44364">
        <ele>41.47</ele>
        <time>2018-10-28T13:54:45Z</time>
      </trkpt>
      <trkpt lat="49.28384" lon="-0.44378">
        <ele>42.44</ele>
        <time>2018-10-28T13:54:52Z</time>
      </trkpt>
      <trkpt lat="49.28384" lon="-0.44387">
        <ele>40.99</ele>
        <time>2018-10-28T13:54:56Z</time>
      </trkpt>
      <trkpt lat="49.28384" lon="-0.44413">
        <ele>41.95</ele>
        <time>2018-10-28T13:55:10Z</time>
      </trkpt>
      <trkpt lat="49.28394" lon="-0.44419">
        <ele>40.51</ele>
        <time>2018-10-28T13:55:19Z</time>
      </trkpt>
      <trkpt lat="49.28419" lon="-0.44422">
        <ele>41.95</ele>
        <time>2018-10-28T13:55:38Z</time>
      </trkpt>
      <trkpt lat="49.28447" lon="-0.44423">
        <ele>42.92</ele>
        <time>2018-10-28T13:55:59Z</time>
      </trkpt>
      <trkpt lat="49.2845" lon="-0.44424">
        <ele>41.47</ele>
        <time>2018-10-28T13:56:01Z</time>
      </trkpt>
      <trkpt lat="49.28475" lon="-0.44425">
        <ele>41.95</ele>
        <time>2018-10-28T13:56:20Z</time>
      </trkpt>
      <trkpt lat="49.28481" lon="-0.44425">
        <ele>43.4</ele>
        <time>2018-10-28T13:56:24Z</time>
      </trkpt>
      <trkpt lat="49.28485" lon="-0.44425">
        <ele>41.95</ele>
        <time>2018-10-28T13:56:27Z</time>
      </trkpt>
      <trkpt lat="49.2849" lon="-0.44425">
        <ele>43.4</ele>
        <time>2018-10-28T13:56:31Z</time>
      </trkpt>
      <trkpt lat="49.28516" lon="-0.44427">
        <ele>41.95</ele>
        <time>2018-10-28T13:56:51Z</time>
      </trkpt>
      <trkpt lat="49.28519" lon="-0.44427">
        <ele>43.4</ele>
        <time>2018-10-28T13:56:53Z</time>
      </trkpt>
      <trkpt lat="49.28527" lon="-0.44428">
        <ele>42.92</ele>
        <time>2018-10-28T13:56:59Z</time>
      </trkpt>
      <trkpt lat="49.28533" lon="-0.44428">
        <ele>43.88</ele>
        <time>2018-10-28T13:57:04Z</time>
      </trkpt>
      <trkpt lat="49.28536" lon="-0.44429">
        <ele>41.95</ele>
        <time>2018-10-28T13:57:06Z</time>
      </trkpt>
      <trkpt lat="49.28538" lon="-0.44429">
        <ele>40.51</ele>
        <time>2018-10-28T13:57:08Z</time>
      </trkpt>
      <trkpt lat="49.28548" lon="-0.44429">
        <ele>43.4</ele>
        <time>2018-10-28T13:57:16Z</time>
      </trkpt>
      <trkpt lat="49.28552" lon="-0.44429">
        <ele>40.51</ele>
        <time>2018-10-28T13:57:20Z</time>
      </trkpt>
      <trkpt lat="49.28554" lon="-0.4443">
        <ele>40.51</ele>
        <time>2018-10-28T13:57:21Z</time>
      </trkpt>
      <trkpt lat="49.28555" lon="-0.4443">
        <ele>45.8</ele>
        <time>2018-10-28T13:57:22Z</time>
      </trkpt>
      <trkpt lat="49.28556" lon="-0.4443">
        <ele>45.8</ele>
        <time>2018-10-28T13:57:23Z</time>
      </trkpt>
      <trkpt lat="49.2856" lon="-0.44429">
        <ele>48.2</ele>
        <time>2018-10-28T13:57:26Z</time>
      </trkpt>
      <trkpt lat="49.28561" lon="-0.44429">
        <ele>41.95</ele>
        <time>2018-10-28T13:57:27Z</time>
      </trkpt>
      <trkpt lat="49.28563" lon="-0.4443">
        <ele>44.84</ele>
        <time>2018-10-28T13:57:28Z</time>
      </trkpt>
      <trkpt lat="49.28572" lon="-0.4443">
        <ele>45.32</ele>
        <time>2018-10-28T13:57:35Z</time>
      </trkpt>
      <trkpt lat="49.2858" lon="-0.44431">
        <ele>44.36</ele>
        <time>2018-10-28T13:57:41Z</time>
      </trkpt>
      <trkpt lat="49.28586" lon="-0.44431">
        <ele>46.28</ele>
        <time>2018-10-28T13:57:46Z</time>
      </trkpt>
      <trkpt lat="49.28605" lon="-0.44433">
        <ele>45.32</ele>
        <time>2018-10-28T13:58:00Z</time>
      </trkpt>
      <trkpt lat="49.2863" lon="-0.44434">
        <ele>47.24</ele>
        <time>2018-10-28T13:58:20Z</time>
      </trkpt>
      <trkpt lat="49.28652" lon="-0.44435">
        <ele>45.8</ele>
        <time>2018-10-28T13:58:37Z</time>
      </trkpt>
      <trkpt lat="49.28656" lon="-0.44435">
        <ele>47.24</ele>
        <time>2018-10-28T13:58:40Z</time>
      </trkpt>
      <trkpt lat="49.2866" lon="-0.44435">
        <ele>45.8</ele>
        <time>2018-10-28T13:58:43Z</time>
      </trkpt>
      <trkpt lat="49.28662" lon="-0.44436">
        <ele>48.68</ele>
        <time>2018-10-28T13:58:45Z</time>
      </trkpt>
      <trkpt lat="49.28663" lon="-0.44436">
        <ele>48.68</ele>
        <time>2018-10-28T13:58:46Z</time>
      </trkpt>
      <trkpt lat="49.2869" lon="-0.44435">
        <ele>47.24</ele>
        <time>2018-10-28T13:59:06Z</time>
      </trkpt>
      <trkpt lat="49.28692" lon="-0.44435">
        <ele>47.24</ele>
        <time>2018-10-28T13:59:07Z</time>
      </trkpt>
      <trkpt lat="49.28706" lon="-0.44437">
        <ele>48.68</ele>
        <time>2018-10-28T13:59:17Z</time>
      </trkpt>
      <trkpt lat="49.28709" lon="-0.44437">
        <ele>50.61</ele>
        <time>2018-10-28T13:59:20Z</time>
      </trkpt>
      <trkpt lat="49.28712" lon="-0.44437">
        <ele>49.16</ele>
        <time>2018-10-28T13:59:22Z</time>
      </trkpt>
      <trkpt lat="49.28717" lon="-0.44438">
        <ele>50.61</ele>
        <time>2018-10-28T13:59:26Z</time>
      </trkpt>
      <trkpt lat="49.28722" lon="-0.44437">
        <ele>48.2</ele>
        <time>2018-10-28T13:59:31Z</time>
      </trkpt>
      <trkpt lat="49.28725" lon="-0.44438">
        <ele>50.13</ele>
        <time>2018-10-28T13:59:33Z</time>
      </trkpt>
      <trkpt lat="49.28729" lon="-0.44437">
        <ele>48.2</ele>
        <time>2018-10-28T13:59:37Z</time>
      </trkpt>
      <trkpt lat="49.28735" lon="-0.44436">
        <ele>51.09</ele>
        <time>2018-10-28T13:59:42Z</time>
      </trkpt>
      <trkpt lat="49.2874" lon="-0.44437">
        <ele>49.65</ele>
        <time>2018-10-28T13:59:46Z</time>
      </trkpt>
      <trkpt lat="49.28768" lon="-0.44438">
        <ele>50.13</ele>
        <time>2018-10-28T14:00:06Z</time>
      </trkpt>
      <trkpt lat="49.28795" lon="-0.4444">
        <ele>49.65</ele>
        <time>2018-10-28T14:00:27Z</time>
      </trkpt>
      <trkpt lat="49.28796" lon="-0.44441">
        <ele>49.65</ele>
        <time>2018-10-28T14:00:28Z</time>
      </trkpt>
      <trkpt lat="49.28815" lon="-0.44441">
        <ele>50.61</ele>
        <time>2018-10-28T14:00:41Z</time>
      </trkpt>
      <trkpt lat="49.28822" lon="-0.44442">
        <ele>50.13</ele>
        <time>2018-10-28T14:00:47Z</time>
      </trkpt>
      <trkpt lat="49.28853" lon="-0.44443">
        <ele>50.13</ele>
        <time>2018-10-28T14:01:09Z</time>
      </trkpt>
      <trkpt lat="49.28879" lon="-0.44444">
        <ele>49.65</ele>
        <time>2018-10-28T14:01:29Z</time>
      </trkpt>
      <trkpt lat="49.28883" lon="-0.44445">
        <ele>51.57</ele>
        <time>2018-10-28T14:01:32Z</time>
      </trkpt>
      <trkpt lat="49.28893" lon="-0.44446">
        <ele>49.65</ele>
        <time>2018-10-28T14:01:40Z</time>
      </trkpt>
      <trkpt lat="49.28919" lon="-0.44447">
        <ele>50.61</ele>
        <time>2018-10-28T14:02:00Z</time>
      </trkpt>
      <trkpt lat="49.28941" lon="-0.44449">
        <ele>49.65</ele>
        <time>2018-10-28T14:02:17Z</time>
      </trkpt>
      <trkpt lat="49.28942" lon="-0.44449">
        <ele>51.57</ele>
        <time>2018-10-28T14:02:18Z</time>
      </trkpt>
      <trkpt lat="49.28946" lon="-0.44449">
        <ele>50.13</ele>
        <time>2018-10-28T14:02:21Z</time>
      </trkpt>
      <trkpt lat="49.28953" lon="-0.4445">
        <ele>52.05</ele>
        <time>2018-10-28T14:02:27Z</time>
      </trkpt>
      <trkpt lat="49.28961" lon="-0.44451">
        <ele>51.09</ele>
        <time>2018-10-28T14:02:33Z</time>
      </trkpt>
      <trkpt lat="49.2897" lon="-0.44453">
        <ele>49.16</ele>
        <time>2018-10-28T14:02:40Z</time>
      </trkpt>
      <trkpt lat="49.28973" lon="-0.44461">
        <ele>48.2</ele>
        <time>2018-10-28T14:02:46Z</time>
      </trkpt>
      <trkpt lat="49.28966" lon="-0.44494">
        <ele>47.24</ele>
        <time>2018-10-28T14:03:06Z</time>
      </trkpt>
      <trkpt lat="49.28959" lon="-0.44529">
        <ele>45.8</ele>
        <time>2018-10-28T14:03:26Z</time>
      </trkpt>
      <trkpt lat="49.28954" lon="-0.44559">
        <ele>44.84</ele>
        <time>2018-10-28T14:03:42Z</time>
      </trkpt>
      <trkpt lat="49.28949" lon="-0.44585">
        <ele>43.4</ele>
        <time>2018-10-28T14:03:56Z</time>
      </trkpt>
      <trkpt lat="49.28943" lon="-0.44616">
        <ele>43.4</ele>
        <time>2018-10-28T14:04:12Z</time>
      </trkpt>
      <trkpt lat="49.28943" lon="-0.44618">
        <ele>43.4</ele>
        <time>2018-10-28T14:04:13Z</time>
      </trkpt>
      <trkpt lat="49.28939" lon="-0.44633">
        <ele>41.95</ele>
        <time>2018-10-28T14:04:22Z</time>
      </trkpt>
      <trkpt lat="49.28935" lon="-0.44645">
        <ele>40.99</ele>
        <time>2018-10-28T14:04:34Z</time>
      </trkpt>
      <trkpt lat="49.28934" lon="-0.44654">
        <ele>43.4</ele>
        <time>2018-10-28T14:04:39Z</time>
      </trkpt>
      <trkpt lat="49.28933" lon="-0.44659">
        <ele>41.95</ele>
        <time>2018-10-28T14:04:42Z</time>
      </trkpt>
      <trkpt lat="49.28924" lon="-0.44691">
        <ele>40.99</ele>
        <time>2018-10-28T14:05:01Z</time>
      </trkpt>
      <trkpt lat="49.28921" lon="-0.44704">
        <ele>42.44</ele>
        <time>2018-10-28T14:05:08Z</time>
      </trkpt>
      <trkpt lat="49.28917" lon="-0.44718">
        <ele>40.99</ele>
        <time>2018-10-28T14:05:16Z</time>
      </trkpt>
      <trkpt lat="49.28912" lon="-0.44738">
        <ele>43.4</ele>
        <time>2018-10-28T14:05:27Z</time>
      </trkpt>
      <trkpt lat="49.28911" lon="-0.44742">
        <ele>41.95</ele>
        <time>2018-10-28T14:05:29Z</time>
      </trkpt>
      <trkpt lat="49.28904" lon="-0.44772">
        <ele>41.47</ele>
        <time>2018-10-28T14:05:46Z</time>
      </trkpt>
      <trkpt lat="49.28902" lon="-0.44777">
        <ele>39.55</ele>
        <time>2018-10-28T14:05:49Z</time>
      </trkpt>
      <trkpt lat="49.28893" lon="-0.44815">
        <ele>38.59</ele>
        <time>2018-10-28T14:06:11Z</time>
      </trkpt>
      <trkpt lat="49.28889" lon="-0.44838">
        <ele>39.55</ele>
        <time>2018-10-28T14:06:24Z</time>
      </trkpt>
      <trkpt lat="49.28884" lon="-0.44858">
        <ele>39.55</ele>
        <time>2018-10-28T14:06:35Z</time>
      </trkpt>
      <trkpt lat="49.28882" lon="-0.4486">
        <ele>38.11</ele>
        <time>2018-10-28T14:06:37Z</time>
      </trkpt>
      <trkpt lat="49.2888" lon="-0.44867">
        <ele>40.03</ele>
        <time>2018-10-28T14:06:41Z</time>
      </trkpt>
      <trkpt lat="49.28876" lon="-0.4488">
        <ele>38.59</ele>
        <time>2018-10-28T14:06:47Z</time>
      </trkpt>
      <trkpt lat="49.28864" lon="-0.44918">
        <ele>36.67</ele>
        <time>2018-10-28T14:07:08Z</time>
      </trkpt>
      <trkpt lat="49.28858" lon="-0.44937">
        <ele>38.11</ele>
        <time>2018-10-28T14:07:20Z</time>
      </trkpt>
      <trkpt lat="49.28857" lon="-0.44944">
        <ele>39.07</ele>
        <time>2018-10-28T14:07:24Z</time>
      </trkpt>
      <trkpt lat="49.28856" lon="-0.44947">
        <ele>40.03</ele>
        <time>2018-10-28T14:07:26Z</time>
      </trkpt>
      <trkpt lat="49.28854" lon="-0.44952">
        <ele>37.63</ele>
        <time>2018-10-28T14:07:29Z</time>
      </trkpt>
      <trkpt lat="49.28856" lon="-0.44959">
        <ele>37.15</ele>
        <time>2018-10-28T14:07:45Z</time>
      </trkpt>
      <trkpt lat="49.2885" lon="-0.44968">
        <ele>39.55</ele>
        <time>2018-10-28T14:08:03Z</time>
      </trkpt>
      <trkpt lat="49.28849" lon="-0.44972">
        <ele>38.11</ele>
        <time>2018-10-28T14:08:05Z</time>
      </trkpt>
      <trkpt lat="49.28837" lon="-0.45001">
        <ele>36.19</ele>
        <time>2018-10-28T14:08:23Z</time>
      </trkpt>
      <trkpt lat="49.28827" lon="-0.45031">
        <ele>36.19</ele>
        <time>2018-10-28T14:08:41Z</time>
      </trkpt>
      <trkpt lat="49.28815" lon="-0.45061">
        <ele>36.19</ele>
        <time>2018-10-28T14:08:59Z</time>
      </trkpt>
      <trkpt lat="49.28813" lon="-0.45066">
        <ele>34.26</ele>
        <time>2018-10-28T14:09:02Z</time>
      </trkpt>
      <trkpt lat="49.28804" lon="-0.45094">
        <ele>33.78</ele>
        <time>2018-10-28T14:09:20Z</time>
      </trkpt>
      <trkpt lat="49.28795" lon="-0.45119">
        <ele>34.74</ele>
        <time>2018-10-28T14:09:34Z</time>
      </trkpt>
      <trkpt lat="49.2879" lon="-0.45131">
        <ele>32.82</ele>
        <time>2018-10-28T14:09:41Z</time>
      </trkpt>
      <trkpt lat="49.28783" lon="-0.45151">
        <ele>31.38</ele>
        <time>2018-10-28T14:09:54Z</time>
      </trkpt>
      <trkpt lat="49.28775" lon="-0.4517">
        <ele>30.42</ele>
        <time>2018-10-28T14:10:09Z</time>
      </trkpt>
      <trkpt lat="49.2877" lon="-0.45184">
        <ele>30.9</ele>
        <time>2018-10-28T14:10:21Z</time>
      </trkpt>
      <trkpt lat="49.28764" lon="-0.45213">
        <ele>28.02</ele>
        <time>2018-10-28T14:10:38Z</time>
      </trkpt>
      <trkpt lat="49.28761" lon="-0.45245">
        <ele>26.09</ele>
        <time>2018-10-28T14:10:55Z</time>
      </trkpt>
      <trkpt lat="49.28759" lon="-0.45272">
        <ele>24.65</ele>
        <time>2018-10-28T14:11:10Z</time>
      </trkpt>
      <trkpt lat="49.28756" lon="-0.45298">
        <ele>23.69</ele>
        <time>2018-10-28T14:11:25Z</time>
      </trkpt>
      <trkpt lat="49.28758" lon="-0.45329">
        <ele>20.81</ele>
        <time>2018-10-28T14:11:43Z</time>
      </trkpt>
      <trkpt lat="49.28762" lon="-0.45366">
        <ele>17.92</ele>
        <time>2018-10-28T14:12:01Z</time>
      </trkpt>
      <trkpt lat="49.28767" lon="-0.4538">
        <ele>16.48</ele>
        <time>2018-10-28T14:12:14Z</time>
      </trkpt>
      <trkpt lat="49.2877" lon="-0.45396">
        <ele>14.56</ele>
        <time>2018-10-28T14:12:25Z</time>
      </trkpt>
      <trkpt lat="49.28772" lon="-0.45412">
        <ele>14.56</ele>
        <time>2018-10-28T14:12:33Z</time>
      </trkpt>
      <trkpt lat="49.28771" lon="-0.45429">
        <ele>14.08</ele>
        <time>2018-10-28T14:12:42Z</time>
      </trkpt>
      <trkpt lat="49.28773" lon="-0.45436">
        <ele>12.15</ele>
        <time>2018-10-28T14:12:53Z</time>
      </trkpt>
      <trkpt lat="49.28776" lon="-0.45449">
        <ele>13.12</ele>
        <time>2018-10-28T14:13:17Z</time>
      </trkpt>
      <trkpt lat="49.28782" lon="-0.45465">
        <ele>12.15</ele>
        <time>2018-10-28T14:13:28Z</time>
      </trkpt>
      <trkpt lat="49.28787" lon="-0.45487">
        <ele>13.12</ele>
        <time>2018-10-28T14:13:42Z</time>
      </trkpt>
      <trkpt lat="49.28788" lon="-0.45491">
        <ele>12.15</ele>
        <time>2018-10-28T14:13:44Z</time>
      </trkpt>
      <trkpt lat="49.28791" lon="-0.45508">
        <ele>10.71</ele>
        <time>2018-10-28T14:13:55Z</time>
      </trkpt>
      <trkpt lat="49.28791" lon="-0.45512">
        <ele>10.23</ele>
        <time>2018-10-28T14:13:59Z</time>
      </trkpt>
      <trkpt lat="49.28791" lon="-0.45518">
        <ele>10.23</ele>
        <time>2018-10-28T14:14:01Z</time>
      </trkpt>
      <trkpt lat="49.2879" lon="-0.4552">
        <ele>10.23</ele>
        <time>2018-10-28T14:14:02Z</time>
      </trkpt>
      <trkpt lat="49.28789" lon="-0.45523">
        <ele>10.23</ele>
        <time>2018-10-28T14:14:03Z</time>
      </trkpt>
      <trkpt lat="49.28787" lon="-0.45524">
        <ele>10.23</ele>
        <time>2018-10-28T14:14:04Z</time>
      </trkpt>
      <trkpt lat="49.28786" lon="-0.45525">
        <ele>10.23</ele>
        <time>2018-10-28T14:14:05Z</time>
      </trkpt>
      <trkpt lat="49.28785" lon="-0.45525">
        <ele>10.23</ele>
        <time>2018-10-28T14:14:06Z</time>
      </trkpt>
      <trkpt lat="49.28783" lon="-0.45525">
        <ele>10.23</ele>
        <time>2018-10-28T14:14:07Z</time>
      </trkpt>
      <trkpt lat="49.28782" lon="-0.45525">
        <ele>10.23</ele>
        <time>2018-10-28T14:14:08Z</time>
      </trkpt>
      <trkpt lat="49.28781" lon="-0.45526">
        <ele>10.23</ele>
        <time>2018-10-28T14:14:09Z</time>
      </trkpt>
      <trkpt lat="49.2878" lon="-0.45526">
        <ele>10.23</ele>
        <time>2018-10-28T14:14:10Z</time>
      </trkpt>
      <trkpt lat="49.28779" lon="-0.45526">
        <ele>10.23</ele>
        <time>2018-10-28T14:14:11Z</time>
      </trkpt>
      <trkpt lat="49.28758" lon="-0.45526">
        <ele>11.67</ele>
        <time>2018-10-28T14:14:30Z</time>
      </trkpt>
      <trkpt lat="49.2874" lon="-0.45525">
        <ele>10.23</ele>
        <time>2018-10-28T14:14:46Z</time>
      </trkpt>
      <trkpt lat="49.28738" lon="-0.45525">
        <ele>10.23</ele>
        <time>2018-10-28T14:14:47Z</time>
      </trkpt>
      <trkpt lat="49.28737" lon="-0.45526">
        <ele>10.23</ele>
        <time>2018-10-28T14:14:48Z</time>
      </trkpt>
      <trkpt lat="49.28736" lon="-0.45526">
        <ele>11.67</ele>
        <time>2018-10-28T14:14:49Z</time>
      </trkpt>
      <trkpt lat="49.28734" lon="-0.45526">
        <ele>11.67</ele>
        <time>2018-10-28T14:14:50Z</time>
      </trkpt>
      <trkpt lat="49.28733" lon="-0.45526">
        <ele>11.67</ele>
        <time>2018-10-28T14:14:51Z</time>
      </trkpt>
      <trkpt lat="49.28732" lon="-0.45526">
        <ele>11.67</ele>
        <time>2018-10-28T14:14:52Z</time>
      </trkpt>
      <trkpt lat="49.2873" lon="-0.45526">
        <ele>11.67</ele>
        <time>2018-10-28T14:14:53Z</time>
      </trkpt>
      <trkpt lat="49.2871" lon="-0.45516">
        <ele>10.23</ele>
        <time>2018-10-28T14:15:08Z</time>
      </trkpt>
      <trkpt lat="49.2869" lon="-0.45505">
        <ele>10.23</ele>
        <time>2018-10-28T14:15:24Z</time>
      </trkpt>
      <trkpt lat="49.28671" lon="-0.45493">
        <ele>10.23</ele>
        <time>2018-10-28T14:15:41Z</time>
      </trkpt>
      <trkpt lat="49.28656" lon="-0.45484">
        <ele>12.15</ele>
        <time>2018-10-28T14:15:56Z</time>
      </trkpt>
      <trkpt lat="49.28651" lon="-0.45482">
        <ele>10.71</ele>
        <time>2018-10-28T14:16:00Z</time>
      </trkpt>
      <trkpt lat="49.28631" lon="-0.45466">
        <ele>10.23</ele>
        <time>2018-10-28T14:16:16Z</time>
      </trkpt>
      <trkpt lat="49.28611" lon="-0.45452">
        <ele>10.23</ele>
        <time>2018-10-28T14:16:31Z</time>
      </trkpt>
      <trkpt lat="49.28592" lon="-0.45438">
        <ele>10.23</ele>
        <time>2018-10-28T14:16:46Z</time>
      </trkpt>
      <trkpt lat="49.28578" lon="-0.45427">
        <ele>11.67</ele>
        <time>2018-10-28T14:16:59Z</time>
      </trkpt>
      <trkpt lat="49.28569" lon="-0.45421">
        <ele>10.71</ele>
        <time>2018-10-28T14:17:07Z</time>
      </trkpt>
      <trkpt lat="49.28548" lon="-0.45411">
        <ele>10.71</ele>
        <time>2018-10-28T14:17:24Z</time>
      </trkpt>
      <trkpt lat="49.28541" lon="-0.45408">
        <ele>12.15</ele>
        <time>2018-10-28T14:17:29Z</time>
      </trkpt>
      <trkpt lat="49.28539" lon="-0.45408">
        <ele>12.63</ele>
        <time>2018-10-28T14:17:30Z</time>
      </trkpt>
      <trkpt lat="49.28538" lon="-0.45407">
        <ele>12.63</ele>
        <time>2018-10-28T14:17:31Z</time>
      </trkpt>
      <trkpt lat="49.28536" lon="-0.45406">
        <ele>12.63</ele>
        <time>2018-10-28T14:17:32Z</time>
      </trkpt>
      <trkpt lat="49.28535" lon="-0.45405">
        <ele>11.67</ele>
        <time>2018-10-28T14:17:33Z</time>
      </trkpt>
      <trkpt lat="49.28534" lon="-0.45405">
        <ele>11.67</ele>
        <time>2018-10-28T14:17:34Z</time>
      </trkpt>
      <trkpt lat="49.2852" lon="-0.45396">
        <ele>11.67</ele>
        <time>2018-10-28T14:17:46Z</time>
      </trkpt>
      <trkpt lat="49.28501" lon="-0.45385">
        <ele>11.67</ele>
        <time>2018-10-28T14:18:02Z</time>
      </trkpt>
      <trkpt lat="49.285" lon="-0.45385">
        <ele>11.67</ele>
        <time>2018-10-28T14:18:03Z</time>
      </trkpt>
      <trkpt lat="49.28498" lon="-0.45385">
        <ele>11.67</ele>
        <time>2018-10-28T14:18:04Z</time>
      </trkpt>
      <trkpt lat="49.28497" lon="-0.45386">
        <ele>11.67</ele>
        <time>2018-10-28T14:18:05Z</time>
      </trkpt>
      <trkpt lat="49.28496" lon="-0.45386">
        <ele>11.67</ele>
        <time>2018-10-28T14:18:06Z</time>
      </trkpt>
      <trkpt lat="49.28487" lon="-0.45389">
        <ele>11.67</ele>
        <time>2018-10-28T14:18:15Z</time>
      </trkpt>
      <trkpt lat="49.28487" lon="-0.45391">
        <ele>13.12</ele>
        <time>2018-10-28T14:18:16Z</time>
      </trkpt>
      <trkpt lat="49.28487" lon="-0.45393">
        <ele>13.12</ele>
        <time>2018-10-28T14:18:17Z</time>
      </trkpt>
      <trkpt lat="49.28485" lon="-0.45397">
        <ele>13.12</ele>
        <time>2018-10-28T14:18:20Z</time>
      </trkpt>
      <trkpt lat="49.28484" lon="-0.45398">
        <ele>13.12</ele>
        <time>2018-10-28T14:18:21Z</time>
      </trkpt>
      <trkpt lat="49.28484" lon="-0.454">
        <ele>13.12</ele>
        <time>2018-10-28T14:18:22Z</time>
      </trkpt>
      <trkpt lat="49.28478" lon="-0.45418">
        <ele>13.12</ele>
        <time>2018-10-28T14:18:33Z</time>
      </trkpt>
      <trkpt lat="49.2847" lon="-0.45445">
        <ele>12.63</ele>
        <time>2018-10-28T14:18:47Z</time>
      </trkpt>
      <trkpt lat="49.28461" lon="-0.45472">
        <ele>11.67</ele>
        <time>2018-10-28T14:19:01Z</time>
      </trkpt>
      <trkpt lat="49.28461" lon="-0.45476">
        <ele>11.67</ele>
        <time>2018-10-28T14:19:03Z</time>
      </trkpt>
      <trkpt lat="49.28462" lon="-0.4548">
        <ele>11.67</ele>
        <time>2018-10-28T14:19:05Z</time>
      </trkpt>
      <trkpt lat="49.28462" lon="-0.45482">
        <ele>11.67</ele>
        <time>2018-10-28T14:19:06Z</time>
      </trkpt>
      <trkpt lat="49.28463" lon="-0.45484">
        <ele>11.67</ele>
        <time>2018-10-28T14:19:07Z</time>
      </trkpt>
      <trkpt lat="49.28464" lon="-0.45485">
        <ele>11.19</ele>
        <time>2018-10-28T14:19:08Z</time>
      </trkpt>
      <trkpt lat="49.28465" lon="-0.45486">
        <ele>9.75</ele>
        <time>2018-10-28T14:19:09Z</time>
      </trkpt>
      <trkpt lat="49.28466" lon="-0.45488">
        <ele>12.63</ele>
        <time>2018-10-28T14:19:10Z</time>
      </trkpt>
      <trkpt lat="49.28467" lon="-0.45489">
        <ele>11.19</ele>
        <time>2018-10-28T14:19:11Z</time>
      </trkpt>
      <trkpt lat="49.28468" lon="-0.4549">
        <ele>11.19</ele>
        <time>2018-10-28T14:19:12Z</time>
      </trkpt>
      <trkpt lat="49.28469" lon="-0.45491">
        <ele>11.19</ele>
        <time>2018-10-28T14:19:13Z</time>
      </trkpt>
      <trkpt lat="49.2847" lon="-0.45493">
        <ele>11.19</ele>
        <time>2018-10-28T14:19:14Z</time>
      </trkpt>
      <trkpt lat="49.28471" lon="-0.45494">
        <ele>11.19</ele>
        <time>2018-10-28T14:19:15Z</time>
      </trkpt>
      <trkpt lat="49.28474" lon="-0.45498">
        <ele>12.63</ele>
        <time>2018-10-28T14:19:18Z</time>
      </trkpt>
      <trkpt lat="49.28493" lon="-0.45518">
        <ele>11.19</ele>
        <time>2018-10-28T14:19:36Z</time>
      </trkpt>
      <trkpt lat="49.28507" lon="-0.45546">
        <ele>10.23</ele>
        <time>2018-10-28T14:19:53Z</time>
      </trkpt>
      <trkpt lat="49.28498" lon="-0.45567">
        <ele>10.23</ele>
        <time>2018-10-28T14:20:08Z</time>
      </trkpt>
      <trkpt lat="49.28491" lon="-0.45594">
        <ele>10.71</ele>
        <time>2018-10-28T14:20:24Z</time>
      </trkpt>
      <trkpt lat="49.28489" lon="-0.45597">
        <ele>10.71</ele>
        <time>2018-10-28T14:20:26Z</time>
      </trkpt>
      <trkpt lat="49.28485" lon="-0.45619">
        <ele>10.23</ele>
        <time>2018-10-28T14:20:41Z</time>
      </trkpt>
      <trkpt lat="49.28482" lon="-0.45644">
        <ele>10.71</ele>
        <time>2018-10-28T14:20:55Z</time>
      </trkpt>
      <trkpt lat="49.28477" lon="-0.4567">
        <ele>13.6</ele>
        <time>2018-10-28T14:21:06Z</time>
      </trkpt>
      <trkpt lat="49.28476" lon="-0.45672">
        <ele>11.19</ele>
        <time>2018-10-28T14:21:07Z</time>
      </trkpt>
      <trkpt lat="49.28473" lon="-0.45692">
        <ele>10.71</ele>
        <time>2018-10-28T14:21:21Z</time>
      </trkpt>
      <trkpt lat="49.2847" lon="-0.45708">
        <ele>10.71</ele>
        <time>2018-10-28T14:21:39Z</time>
      </trkpt>
      <trkpt lat="49.2847" lon="-0.45738">
        <ele>10.23</ele>
        <time>2018-10-28T14:21:58Z</time>
      </trkpt>
      <trkpt lat="49.28476" lon="-0.45769">
        <ele>10.23</ele>
        <time>2018-10-28T14:22:15Z</time>
      </trkpt>
      <trkpt lat="49.28483" lon="-0.45803">
        <ele>10.23</ele>
        <time>2018-10-28T14:22:31Z</time>
      </trkpt>
      <trkpt lat="49.28486" lon="-0.4581">
        <ele>12.63</ele>
        <time>2018-10-28T14:22:34Z</time>
      </trkpt>
      <trkpt lat="49.28494" lon="-0.45835">
        <ele>11.19</ele>
        <time>2018-10-28T14:22:49Z</time>
      </trkpt>
      <trkpt lat="49.28498" lon="-0.45849">
        <ele>10.71</ele>
        <time>2018-10-28T14:22:59Z</time>
      </trkpt>
      <trkpt lat="49.28504" lon="-0.45869">
        <ele>9.27</ele>
        <time>2018-10-28T14:23:13Z</time>
      </trkpt>
      <trkpt lat="49.28506" lon="-0.45873">
        <ele>10.71</ele>
        <time>2018-10-28T14:23:16Z</time>
      </trkpt>
      <trkpt lat="49.28511" lon="-0.45887">
        <ele>10.23</ele>
        <time>2018-10-28T14:23:28Z</time>
      </trkpt>
      <trkpt lat="49.28523" lon="-0.45905">
        <ele>10.71</ele>
        <time>2018-10-28T14:23:43Z</time>
      </trkpt>
      <trkpt lat="49.28549" lon="-0.45921">
        <ele>10.71</ele>
        <time>2018-10-28T14:23:57Z</time>
      </trkpt>
      <trkpt lat="49.28556" lon="-0.45926">
        <ele>12.63</ele>
        <time>2018-10-28T14:24:03Z</time>
      </trkpt>
      <trkpt lat="49.28564" lon="-0.45928">
        <ele>11.19</ele>
        <time>2018-10-28T14:24:11Z</time>
      </trkpt>
      <trkpt lat="49.28577" lon="-0.45935">
        <ele>11.19</ele>
        <time>2018-10-28T14:24:24Z</time>
      </trkpt>
      <trkpt lat="49.28578" lon="-0.45936">
        <ele>11.19</ele>
        <time>2018-10-28T14:24:25Z</time>
      </trkpt>
      <trkpt lat="49.28589" lon="-0.45942">
        <ele>10.23</ele>
        <time>2018-10-28T14:24:34Z</time>
      </trkpt>
      <trkpt lat="49.28591" lon="-0.45943">
        <ele>10.23</ele>
        <time>2018-10-28T14:24:35Z</time>
      </trkpt>
      <trkpt lat="49.28592" lon="-0.45943">
        <ele>10.23</ele>
        <time>2018-10-28T14:24:36Z</time>
      </trkpt>
      <trkpt lat="49.28602" lon="-0.45947">
        <ele>11.67</ele>
        <time>2018-10-28T14:24:43Z</time>
      </trkpt>
      <trkpt lat="49.28612" lon="-0.45952">
        <ele>13.12</ele>
        <time>2018-10-28T14:24:53Z</time>
      </trkpt>
      <trkpt lat="49.28615" lon="-0.45954">
        <ele>11.67</ele>
        <time>2018-10-28T14:24:56Z</time>
      </trkpt>
      <trkpt lat="49.28632" lon="-0.45963">
        <ele>13.6</ele>
        <time>2018-10-28T14:25:10Z</time>
      </trkpt>
      <trkpt lat="49.2865" lon="-0.45978">
        <ele>15.52</ele>
        <time>2018-10-28T14:25:26Z</time>
      </trkpt>
      <trkpt lat="49.28661" lon="-0.45984">
        <ele>14.08</ele>
        <time>2018-10-28T14:25:34Z</time>
      </trkpt>
      <trkpt lat="49.28669" lon="-0.4599">
        <ele>15.04</ele>
        <time>2018-10-28T14:25:42Z</time>
      </trkpt>
      <trkpt lat="49.28681" lon="-0.45997">
        <ele>15.52</ele>
        <time>2018-10-28T14:25:54Z</time>
      </trkpt>
      <trkpt lat="49.28685" lon="-0.45995">
        <ele>17.92</ele>
        <time>2018-10-28T14:26:05Z</time>
      </trkpt>
      <trkpt lat="49.28685" lon="-0.45992">
        <ele>15.52</ele>
        <time>2018-10-28T14:26:08Z</time>
      </trkpt>
      <trkpt lat="49.28683" lon="-0.45988">
        <ele>14.56</ele>
        <time>2018-10-28T14:26:27Z</time>
      </trkpt>
      <trkpt lat="49.28683" lon="-0.45988">
        <ele>16</ele>
        <time>2018-10-28T14:26:29Z</time>
      </trkpt>
      <trkpt lat="49.28683" lon="-0.45989">
        <ele>15.04</ele>
        <time>2018-10-28T14:26:35Z</time>
      </trkpt>
      <trkpt lat="49.28684" lon="-0.45988">
        <ele>15.04</ele>
        <time>2018-10-28T14:27:03Z</time>
      </trkpt>
      <trkpt lat="49.28685" lon="-0.45992">
        <ele>16.48</ele>
        <time>2018-10-28T14:27:23Z</time>
      </trkpt>
      <trkpt lat="49.28685" lon="-0.45993">
        <ele>16.48</ele>
        <time>2018-10-28T14:27:24Z</time>
      </trkpt>
      <trkpt lat="49.28697" lon="-0.46009">
        <ele>16.48</ele>
        <time>2018-10-28T14:27:37Z</time>
      </trkpt>
      <trkpt lat="49.28706" lon="-0.46022">
        <ele>17.92</ele>
        <time>2018-10-28T14:27:53Z</time>
      </trkpt>
      <trkpt lat="49.28711" lon="-0.4603">
        <ele>18.88</ele>
        <time>2018-10-28T14:28:00Z</time>
      </trkpt>
      <trkpt lat="49.28725" lon="-0.46049">
        <ele>21.29</ele>
        <time>2018-10-28T14:28:14Z</time>
      </trkpt>
      <trkpt lat="49.28736" lon="-0.46064">
        <ele>22.73</ele>
        <time>2018-10-28T14:28:27Z</time>
      </trkpt>
      <trkpt lat="49.2875" lon="-0.46079">
        <ele>24.17</ele>
        <time>2018-10-28T14:28:42Z</time>
      </trkpt>
      <trkpt lat="49.28759" lon="-0.4609">
        <ele>26.09</ele>
        <time>2018-10-28T14:28:52Z</time>
      </trkpt>
      <trkpt lat="49.28765" lon="-0.46099">
        <ele>27.53</ele>
        <time>2018-10-28T14:28:59Z</time>
      </trkpt>
      <trkpt lat="49.28766" lon="-0.461">
        <ele>27.53</ele>
        <time>2018-10-28T14:29:00Z</time>
      </trkpt>
      <trkpt lat="49.28767" lon="-0.46102">
        <ele>27.53</ele>
        <time>2018-10-28T14:29:01Z</time>
      </trkpt>
      <trkpt lat="49.28769" lon="-0.46105">
        <ele>26.09</ele>
        <time>2018-10-28T14:29:03Z</time>
      </trkpt>
      <trkpt lat="49.28771" lon="-0.46109">
        <ele>27.53</ele>
        <time>2018-10-28T14:29:06Z</time>
      </trkpt>
      <trkpt lat="49.28781" lon="-0.46124">
        <ele>29.46</ele>
        <time>2018-10-28T14:29:18Z</time>
      </trkpt>
      <trkpt lat="49.28794" lon="-0.46152">
        <ele>30.9</ele>
        <time>2018-10-28T14:29:36Z</time>
      </trkpt>
      <trkpt lat="49.28795" lon="-0.46154">
        <ele>30.9</ele>
        <time>2018-10-28T14:29:37Z</time>
      </trkpt>
      <trkpt lat="49.28796" lon="-0.46157">
        <ele>32.34</ele>
        <time>2018-10-28T14:29:39Z</time>
      </trkpt>
      <trkpt lat="49.288" lon="-0.46165">
        <ele>33.78</ele>
        <time>2018-10-28T14:29:45Z</time>
      </trkpt>
      <trkpt lat="49.28804" lon="-0.46173">
        <ele>30.42</ele>
        <time>2018-10-28T14:29:50Z</time>
      </trkpt>
      <trkpt lat="49.28805" lon="-0.46174">
        <ele>30.42</ele>
        <time>2018-10-28T14:29:51Z</time>
      </trkpt>
      <trkpt lat="49.28806" lon="-0.46178">
        <ele>32.82</ele>
        <time>2018-10-28T14:29:53Z</time>
      </trkpt>
      <trkpt lat="49.28813" lon="-0.46197">
        <ele>35.71</ele>
        <time>2018-10-28T14:30:05Z</time>
      </trkpt>
      <trkpt lat="49.28824" lon="-0.46225">
        <ele>34.26</ele>
        <time>2018-10-28T14:30:20Z</time>
      </trkpt>
      <trkpt lat="49.28826" lon="-0.4623">
        <ele>35.71</ele>
        <time>2018-10-28T14:30:23Z</time>
      </trkpt>
      <trkpt lat="49.28832" lon="-0.46245">
        <ele>37.63</ele>
        <time>2018-10-28T14:30:32Z</time>
      </trkpt>
      <trkpt lat="49.28835" lon="-0.46252">
        <ele>37.15</ele>
        <time>2018-10-28T14:30:36Z</time>
      </trkpt>
      <trkpt lat="49.28842" lon="-0.46266">
        <ele>38.11</ele>
        <time>2018-10-28T14:30:44Z</time>
      </trkpt>
      <trkpt lat="49.28846" lon="-0.46272">
        <ele>36.19</ele>
        <time>2018-10-28T14:30:48Z</time>
      </trkpt>
      <trkpt lat="49.28852" lon="-0.46287">
        <ele>37.15</ele>
        <time>2018-10-28T14:30:56Z</time>
      </trkpt>
      <trkpt lat="49.28852" lon="-0.46291">
        <ele>36.19</ele>
        <time>2018-10-28T14:31:06Z</time>
      </trkpt>
      <trkpt lat="49.28852" lon="-0.4629">
        <ele>35.23</ele>
        <time>2018-10-28T14:31:27Z</time>
      </trkpt>
      <trkpt lat="49.28851" lon="-0.46292">
        <ele>35.23</ele>
        <time>2018-10-28T14:31:34Z</time>
      </trkpt>
      <trkpt lat="49.2885" lon="-0.46293">
        <ele>35.23</ele>
        <time>2018-10-28T14:31:35Z</time>
      </trkpt>
      <trkpt lat="49.28846" lon="-0.46297">
        <ele>37.15</ele>
        <time>2018-10-28T14:31:38Z</time>
      </trkpt>
      <trkpt lat="49.28842" lon="-0.46303">
        <ele>39.55</ele>
        <time>2018-10-28T14:31:42Z</time>
      </trkpt>
      <trkpt lat="49.28838" lon="-0.46309">
        <ele>37.15</ele>
        <time>2018-10-28T14:31:47Z</time>
      </trkpt>
      <trkpt lat="49.28827" lon="-0.4633">
        <ele>36.19</ele>
        <time>2018-10-28T14:32:01Z</time>
      </trkpt>
      <trkpt lat="49.28818" lon="-0.46345">
        <ele>36.19</ele>
        <time>2018-10-28T14:32:12Z</time>
      </trkpt>
      <trkpt lat="49.28805" lon="-0.46368">
        <ele>38.59</ele>
        <time>2018-10-28T14:32:28Z</time>
      </trkpt>
      <trkpt lat="49.28799" lon="-0.46376">
        <ele>37.15</ele>
        <time>2018-10-28T14:32:34Z</time>
      </trkpt>
      <trkpt lat="49.28787" lon="-0.46395">
        <ele>38.11</ele>
        <time>2018-10-28T14:32:50Z</time>
      </trkpt>
      <trkpt lat="49.28786" lon="-0.46398">
        <ele>40.03</ele>
        <time>2018-10-28T14:32:56Z</time>
      </trkpt>
      <trkpt lat="49.28784" lon="-0.46401">
        <ele>38.59</ele>
        <time>2018-10-28T14:32:58Z</time>
      </trkpt>
      <trkpt lat="49.28773" lon="-0.4642">
        <ele>39.07</ele>
        <time>2018-10-28T14:33:12Z</time>
      </trkpt>
      <trkpt lat="49.28769" lon="-0.46424">
        <ele>38.11</ele>
        <time>2018-10-28T14:33:15Z</time>
      </trkpt>
      <trkpt lat="49.28764" lon="-0.46433">
        <ele>38.11</ele>
        <time>2018-10-28T14:33:22Z</time>
      </trkpt>
      <trkpt lat="49.28763" lon="-0.46435">
        <ele>38.11</ele>
        <time>2018-10-28T14:33:23Z</time>
      </trkpt>
      <trkpt lat="49.28763" lon="-0.46436">
        <ele>37.15</ele>
        <time>2018-10-28T14:33:24Z</time>
      </trkpt>
      <trkpt lat="49.28762" lon="-0.46438">
        <ele>37.15</ele>
        <time>2018-10-28T14:33:25Z</time>
      </trkpt>
      <trkpt lat="49.28761" lon="-0.4644">
        <ele>37.15</ele>
        <time>2018-10-28T14:33:26Z</time>
      </trkpt>
      <trkpt lat="49.28745" lon="-0.46464">
        <ele>38.59</ele>
        <time>2018-10-28T14:33:43Z</time>
      </trkpt>
      <trkpt lat="49.28744" lon="-0.46465">
        <ele>37.15</ele>
        <time>2018-10-28T14:33:44Z</time>
      </trkpt>
      <trkpt lat="49.28742" lon="-0.46466">
        <ele>37.15</ele>
        <time>2018-10-28T14:33:45Z</time>
      </trkpt>
      <trkpt lat="49.28741" lon="-0.46467">
        <ele>38.59</ele>
        <time>2018-10-28T14:33:46Z</time>
      </trkpt>
      <trkpt lat="49.2874" lon="-0.46469">
        <ele>38.59</ele>
        <time>2018-10-28T14:33:47Z</time>
      </trkpt>
      <trkpt lat="49.28739" lon="-0.4647">
        <ele>38.59</ele>
        <time>2018-10-28T14:33:48Z</time>
      </trkpt>
      <trkpt lat="49.28739" lon="-0.46472">
        <ele>38.59</ele>
        <time>2018-10-28T14:33:49Z</time>
      </trkpt>
      <trkpt lat="49.28738" lon="-0.46473">
        <ele>38.59</ele>
        <time>2018-10-28T14:33:50Z</time>
      </trkpt>
      <trkpt lat="49.28737" lon="-0.46475">
        <ele>39.55</ele>
        <time>2018-10-28T14:33:51Z</time>
      </trkpt>
      <trkpt lat="49.28736" lon="-0.46476">
        <ele>38.11</ele>
        <time>2018-10-28T14:33:52Z</time>
      </trkpt>
      <trkpt lat="49.28728" lon="-0.46492">
        <ele>40.99</ele>
        <time>2018-10-28T14:34:02Z</time>
      </trkpt>
      <trkpt lat="49.28721" lon="-0.46506">
        <ele>40.03</ele>
        <time>2018-10-28T14:34:10Z</time>
      </trkpt>
      <trkpt lat="49.2871" lon="-0.4652">
        <ele>40.99</ele>
        <time>2018-10-28T14:34:22Z</time>
      </trkpt>
      <trkpt lat="49.28703" lon="-0.46532">
        <ele>40.03</ele>
        <time>2018-10-28T14:34:31Z</time>
      </trkpt>
      <trkpt lat="49.28698" lon="-0.46539">
        <ele>40.03</ele>
        <time>2018-10-28T14:34:36Z</time>
      </trkpt>
      <trkpt lat="49.28696" lon="-0.46544">
        <ele>42.92</ele>
        <time>2018-10-28T14:34:39Z</time>
      </trkpt>
      <trkpt lat="49.28692" lon="-0.4655">
        <ele>41.47</ele>
        <time>2018-10-28T14:34:43Z</time>
      </trkpt>
      <trkpt lat="49.2869" lon="-0.46553">
        <ele>40.03</ele>
        <time>2018-10-28T14:34:45Z</time>
      </trkpt>
      <trkpt lat="49.28685" lon="-0.46561">
        <ele>42.44</ele>
        <time>2018-10-28T14:34:51Z</time>
      </trkpt>
      <trkpt lat="49.28684" lon="-0.46562">
        <ele>42.44</ele>
        <time>2018-10-28T14:34:52Z</time>
      </trkpt>
      <trkpt lat="49.28683" lon="-0.46563">
        <ele>40.99</ele>
        <time>2018-10-28T14:34:53Z</time>
      </trkpt>
      <trkpt lat="49.28682" lon="-0.46565">
        <ele>40.99</ele>
        <time>2018-10-28T14:34:54Z</time>
      </trkpt>
      <trkpt lat="49.28681" lon="-0.46567">
        <ele>42.92</ele>
        <time>2018-10-28T14:34:55Z</time>
      </trkpt>
      <trkpt lat="49.2868" lon="-0.46568">
        <ele>42.92</ele>
        <time>2018-10-28T14:34:56Z</time>
      </trkpt>
      <trkpt lat="49.28679" lon="-0.4657">
        <ele>40.99</ele>
        <time>2018-10-28T14:34:57Z</time>
      </trkpt>
      <trkpt lat="49.28678" lon="-0.46572">
        <ele>42.92</ele>
        <time>2018-10-28T14:34:58Z</time>
      </trkpt>
      <trkpt lat="49.28661" lon="-0.46599">
        <ele>41.47</ele>
        <time>2018-10-28T14:35:17Z</time>
      </trkpt>
      <trkpt lat="49.28647" lon="-0.4662">
        <ele>41.95</ele>
        <time>2018-10-28T14:35:33Z</time>
      </trkpt>
      <trkpt lat="49.28644" lon="-0.46624">
        <ele>40.51</ele>
        <time>2018-10-28T14:35:36Z</time>
      </trkpt>
      <trkpt lat="49.28634" lon="-0.46639">
        <ele>40.51</ele>
        <time>2018-10-28T14:35:48Z</time>
      </trkpt>
      <trkpt lat="49.28634" lon="-0.46641">
        <ele>40.51</ele>
        <time>2018-10-28T14:35:49Z</time>
      </trkpt>
      <trkpt lat="49.28633" lon="-0.46643">
        <ele>40.51</ele>
        <time>2018-10-28T14:35:50Z</time>
      </trkpt>
      <trkpt lat="49.28632" lon="-0.46644">
        <ele>41.47</ele>
        <time>2018-10-28T14:35:51Z</time>
      </trkpt>
      <trkpt lat="49.28632" lon="-0.46646">
        <ele>41.47</ele>
        <time>2018-10-28T14:35:52Z</time>
      </trkpt>
      <trkpt lat="49.28631" lon="-0.46647">
        <ele>41.47</ele>
        <time>2018-10-28T14:35:53Z</time>
      </trkpt>
      <trkpt lat="49.2863" lon="-0.46648">
        <ele>41.47</ele>
        <time>2018-10-28T14:35:54Z</time>
      </trkpt>
      <trkpt lat="49.28629" lon="-0.4665">
        <ele>41.47</ele>
        <time>2018-10-28T14:35:55Z</time>
      </trkpt>
      <trkpt lat="49.28622" lon="-0.46658">
        <ele>40.51</ele>
        <time>2018-10-28T14:36:02Z</time>
      </trkpt>
      <trkpt lat="49.28611" lon="-0.46679">
        <ele>41.95</ele>
        <time>2018-10-28T14:36:16Z</time>
      </trkpt>
      <trkpt lat="49.28601" lon="-0.46694">
        <ele>44.36</ele>
        <time>2018-10-28T14:36:26Z</time>
      </trkpt>
      <trkpt lat="49.28599" lon="-0.46695">
        <ele>41.95</ele>
        <time>2018-10-28T14:36:28Z</time>
      </trkpt>
      <trkpt lat="49.28593" lon="-0.46698">
        <ele>41.95</ele>
        <time>2018-10-28T14:36:33Z</time>
      </trkpt>
      <trkpt lat="49.28578" lon="-0.46683">
        <ele>40.51</ele>
        <time>2018-10-28T14:36:47Z</time>
      </trkpt>
      <trkpt lat="49.2857" lon="-0.46672">
        <ele>41.47</ele>
        <time>2018-10-28T14:36:55Z</time>
      </trkpt>
      <trkpt lat="49.28563" lon="-0.46665">
        <ele>40.51</ele>
        <time>2018-10-28T14:37:02Z</time>
      </trkpt>
      <trkpt lat="49.28558" lon="-0.46661">
        <ele>41.95</ele>
        <time>2018-10-28T14:37:06Z</time>
      </trkpt>
      <trkpt lat="49.28556" lon="-0.46658">
        <ele>40.51</ele>
        <time>2018-10-28T14:37:08Z</time>
      </trkpt>
      <trkpt lat="49.28549" lon="-0.46649">
        <ele>41.95</ele>
        <time>2018-10-28T14:37:15Z</time>
      </trkpt>
      <trkpt lat="49.28543" lon="-0.46641">
        <ele>40.51</ele>
        <time>2018-10-28T14:37:21Z</time>
      </trkpt>
      <trkpt lat="49.28536" lon="-0.46633">
        <ele>43.4</ele>
        <time>2018-10-28T14:37:28Z</time>
      </trkpt>
      <trkpt lat="49.28531" lon="-0.46627">
        <ele>40.03</ele>
        <time>2018-10-28T14:37:33Z</time>
      </trkpt>
      <trkpt lat="49.28526" lon="-0.46621">
        <ele>40.51</ele>
        <time>2018-10-28T14:37:38Z</time>
      </trkpt>
      <trkpt lat="49.28505" lon="-0.46608">
        <ele>40.03</ele>
        <time>2018-10-28T14:37:57Z</time>
      </trkpt>
      <trkpt lat="49.285" lon="-0.46611">
        <ele>38.11</ele>
        <time>2018-10-28T14:38:02Z</time>
      </trkpt>
      <trkpt lat="49.28499" lon="-0.46613">
        <ele>38.11</ele>
        <time>2018-10-28T14:38:03Z</time>
      </trkpt>
      <trkpt lat="49.28497" lon="-0.46617">
        <ele>40.03</ele>
        <time>2018-10-28T14:38:06Z</time>
      </trkpt>
      <trkpt lat="49.28495" lon="-0.46621">
        <ele>38.11</ele>
        <time>2018-10-28T14:38:09Z</time>
      </trkpt>
      <trkpt lat="49.28492" lon="-0.46632">
        <ele>39.55</ele>
        <time>2018-10-28T14:38:16Z</time>
      </trkpt>
      <trkpt lat="49.28489" lon="-0.46638">
        <ele>39.07</ele>
        <time>2018-10-28T14:38:20Z</time>
      </trkpt>
      <trkpt lat="49.28486" lon="-0.46648">
        <ele>38.59</ele>
        <time>2018-10-28T14:38:27Z</time>
      </trkpt>
      <trkpt lat="49.28483" lon="-0.46656">
        <ele>39.07</ele>
        <time>2018-10-28T14:38:34Z</time>
      </trkpt>
      <trkpt lat="49.28481" lon="-0.46659">
        <ele>38.59</ele>
        <time>2018-10-28T14:38:39Z</time>
      </trkpt>
      <trkpt lat="49.28481" lon="-0.46659">
        <ele>38.11</ele>
        <time>2018-10-28T14:38:55Z</time>
      </trkpt>
      <trkpt lat="49.2848" lon="-0.46659">
        <ele>39.07</ele>
        <time>2018-10-28T14:39:19Z</time>
      </trkpt>
      <trkpt lat="49.28475" lon="-0.46666">
        <ele>38.11</ele>
        <time>2018-10-28T14:39:33Z</time>
      </trkpt>
      <trkpt lat="49.28471" lon="-0.46666">
        <ele>37.63</ele>
        <time>2018-10-28T14:39:49Z</time>
      </trkpt>
      <trkpt lat="49.28471" lon="-0.46665">
        <ele>40.99</ele>
        <time>2018-10-28T14:39:56Z</time>
      </trkpt>
      <trkpt lat="49.2847" lon="-0.46666">
        <ele>38.59</ele>
        <time>2018-10-28T14:40:16Z</time>
      </trkpt>
      <trkpt lat="49.28466" lon="-0.46663">
        <ele>38.59</ele>
        <time>2018-10-28T14:40:20Z</time>
      </trkpt>
      <trkpt lat="49.28463" lon="-0.4666">
        <ele>38.11</ele>
        <time>2018-10-28T14:40:23Z</time>
      </trkpt>
      <trkpt lat="49.28461" lon="-0.46658">
        <ele>39.07</ele>
        <time>2018-10-28T14:40:25Z</time>
      </trkpt>
      <trkpt lat="49.28461" lon="-0.46656">
        <ele>39.07</ele>
        <time>2018-10-28T14:40:26Z</time>
      </trkpt>
      <trkpt lat="49.2846" lon="-0.46654">
        <ele>39.07</ele>
        <time>2018-10-28T14:40:27Z</time>
      </trkpt>
      <trkpt lat="49.28459" lon="-0.46653">
        <ele>39.07</ele>
        <time>2018-10-28T14:40:28Z</time>
      </trkpt>
      <trkpt lat="49.28459" lon="-0.46651">
        <ele>41.47</ele>
        <time>2018-10-28T14:40:29Z</time>
      </trkpt>
      <trkpt lat="49.28458" lon="-0.4665">
        <ele>39.55</ele>
        <time>2018-10-28T14:40:30Z</time>
      </trkpt>
      <trkpt lat="49.28454" lon="-0.46644">
        <ele>39.07</ele>
        <time>2018-10-28T14:40:36Z</time>
      </trkpt>
      <trkpt lat="49.28443" lon="-0.46626">
        <ele>38.11</ele>
        <time>2018-10-28T14:40:48Z</time>
      </trkpt>
      <trkpt lat="49.28438" lon="-0.46616">
        <ele>39.55</ele>
        <time>2018-10-28T14:40:54Z</time>
      </trkpt>
      <trkpt lat="49.28436" lon="-0.46613">
        <ele>38.11</ele>
        <time>2018-10-28T14:40:56Z</time>
      </trkpt>
      <trkpt lat="49.28433" lon="-0.46607">
        <ele>39.55</ele>
        <time>2018-10-28T14:41:00Z</time>
      </trkpt>
      <trkpt lat="49.28431" lon="-0.46605">
        <ele>40.03</ele>
        <time>2018-10-28T14:41:02Z</time>
      </trkpt>
      <trkpt lat="49.2843" lon="-0.46604">
        <ele>38.59</ele>
        <time>2018-10-28T14:41:03Z</time>
      </trkpt>
      <trkpt lat="49.28429" lon="-0.46602">
        <ele>38.59</ele>
        <time>2018-10-28T14:41:04Z</time>
      </trkpt>
      <trkpt lat="49.28428" lon="-0.466">
        <ele>38.59</ele>
        <time>2018-10-28T14:41:05Z</time>
      </trkpt>
      <trkpt lat="49.28427" lon="-0.46599">
        <ele>38.59</ele>
        <time>2018-10-28T14:41:06Z</time>
      </trkpt>
      <trkpt lat="49.28427" lon="-0.46597">
        <ele>40.51</ele>
        <time>2018-10-28T14:41:07Z</time>
      </trkpt>
      <trkpt lat="49.28426" lon="-0.46595">
        <ele>40.51</ele>
        <time>2018-10-28T14:41:08Z</time>
      </trkpt>
      <trkpt lat="49.28425" lon="-0.46594">
        <ele>38.59</ele>
        <time>2018-10-28T14:41:09Z</time>
      </trkpt>
      <trkpt lat="49.28424" lon="-0.46593">
        <ele>38.59</ele>
        <time>2018-10-28T14:41:10Z</time>
      </trkpt>
      <trkpt lat="49.2842" lon="-0.46586">
        <ele>39.55</ele>
        <time>2018-10-28T14:41:16Z</time>
      </trkpt>
      <trkpt lat="49.28418" lon="-0.46583">
        <ele>40.99</ele>
        <time>2018-10-28T14:41:19Z</time>
      </trkpt>
      <trkpt lat="49.28414" lon="-0.46579">
        <ele>42.92</ele>
        <time>2018-10-28T14:41:23Z</time>
      </trkpt>
      <trkpt lat="49.28405" lon="-0.46568">
        <ele>41.47</ele>
        <time>2018-10-28T14:41:33Z</time>
      </trkpt>
      <trkpt lat="49.28392" lon="-0.46554">
        <ele>42.44</ele>
        <time>2018-10-28T14:41:46Z</time>
      </trkpt>
      <trkpt lat="49.28388" lon="-0.46551">
        <ele>43.4</ele>
        <time>2018-10-28T14:41:49Z</time>
      </trkpt>
      <trkpt lat="49.28387" lon="-0.46551">
        <ele>43.4</ele>
        <time>2018-10-28T14:41:50Z</time>
      </trkpt>
      <trkpt lat="49.28386" lon="-0.46551">
        <ele>43.88</ele>
        <time>2018-10-28T14:41:51Z</time>
      </trkpt>
      <trkpt lat="49.2838" lon="-0.46545">
        <ele>45.8</ele>
        <time>2018-10-28T14:41:56Z</time>
      </trkpt>
      <trkpt lat="49.28376" lon="-0.46541">
        <ele>42.44</ele>
        <time>2018-10-28T14:41:59Z</time>
      </trkpt>
      <trkpt lat="49.28358" lon="-0.46526">
        <ele>42.44</ele>
        <time>2018-10-28T14:42:14Z</time>
      </trkpt>
      <trkpt lat="49.2835" lon="-0.46518">
        <ele>43.4</ele>
        <time>2018-10-28T14:42:22Z</time>
      </trkpt>
      <trkpt lat="49.28331" lon="-0.46502">
        <ele>44.36</ele>
        <time>2018-10-28T14:42:38Z</time>
      </trkpt>
      <trkpt lat="49.28314" lon="-0.46487">
        <ele>44.36</ele>
        <time>2018-10-28T14:42:53Z</time>
      </trkpt>
      <trkpt lat="49.28298" lon="-0.46473">
        <ele>43.4</ele>
        <time>2018-10-28T14:43:07Z</time>
      </trkpt>
      <trkpt lat="49.2829" lon="-0.46466">
        <ele>44.84</ele>
        <time>2018-10-28T14:43:13Z</time>
      </trkpt>
      <trkpt lat="49.28287" lon="-0.46463">
        <ele>43.4</ele>
        <time>2018-10-28T14:43:16Z</time>
      </trkpt>
      <trkpt lat="49.28284" lon="-0.46461">
        <ele>44.84</ele>
        <time>2018-10-28T14:43:18Z</time>
      </trkpt>
      <trkpt lat="49.2828" lon="-0.46457">
        <ele>42.92</ele>
        <time>2018-10-28T14:43:21Z</time>
      </trkpt>
      <trkpt lat="49.28272" lon="-0.4645">
        <ele>45.8</ele>
        <time>2018-10-28T14:43:28Z</time>
      </trkpt>
      <trkpt lat="49.28267" lon="-0.46445">
        <ele>43.88</ele>
        <time>2018-10-28T14:43:33Z</time>
      </trkpt>
      <trkpt lat="49.2825" lon="-0.46431">
        <ele>45.32</ele>
        <time>2018-10-28T14:43:48Z</time>
      </trkpt>
      <trkpt lat="49.28241" lon="-0.46423">
        <ele>46.76</ele>
        <time>2018-10-28T14:43:56Z</time>
      </trkpt>
      <trkpt lat="49.28233" lon="-0.46416">
        <ele>46.76</ele>
        <time>2018-10-28T14:44:03Z</time>
      </trkpt>
      <trkpt lat="49.28231" lon="-0.46415">
        <ele>45.8</ele>
        <time>2018-10-28T14:44:05Z</time>
      </trkpt>
      <trkpt lat="49.28216" lon="-0.46402">
        <ele>45.8</ele>
        <time>2018-10-28T14:44:18Z</time>
      </trkpt>
      <trkpt lat="49.28201" lon="-0.46388">
        <ele>44.84</ele>
        <time>2018-10-28T14:44:32Z</time>
      </trkpt>
      <trkpt lat="49.282" lon="-0.46387">
        <ele>44.84</ele>
        <time>2018-10-28T14:44:33Z</time>
      </trkpt>
      <trkpt lat="49.28188" lon="-0.46378">
        <ele>47.24</ele>
        <time>2018-10-28T14:44:45Z</time>
      </trkpt>
      <trkpt lat="49.28186" lon="-0.46378">
        <ele>46.28</ele>
        <time>2018-10-28T14:44:50Z</time>
      </trkpt>
      <trkpt lat="49.28185" lon="-0.46379">
        <ele>46.28</ele>
        <time>2018-10-28T14:44:52Z</time>
      </trkpt>
      <trkpt lat="49.28184" lon="-0.4638">
        <ele>46.28</ele>
        <time>2018-10-28T14:44:53Z</time>
      </trkpt>
      <trkpt lat="49.28184" lon="-0.46382">
        <ele>46.28</ele>
        <time>2018-10-28T14:44:54Z</time>
      </trkpt>
      <trkpt lat="49.28183" lon="-0.46384">
        <ele>45.8</ele>
        <time>2018-10-28T14:44:55Z</time>
      </trkpt>
      <trkpt lat="49.28183" lon="-0.46385">
        <ele>46.76</ele>
        <time>2018-10-28T14:44:56Z</time>
      </trkpt>
      <trkpt lat="49.28181" lon="-0.46411">
        <ele>47.72</ele>
        <time>2018-10-28T14:45:09Z</time>
      </trkpt>
      <trkpt lat="49.2818" lon="-0.46424">
        <ele>48.68</ele>
        <time>2018-10-28T14:45:16Z</time>
      </trkpt>
      <trkpt lat="49.2818" lon="-0.46426">
        <ele>46.76</ele>
        <time>2018-10-28T14:45:17Z</time>
      </trkpt>
      <trkpt lat="49.2818" lon="-0.46428">
        <ele>46.76</ele>
        <time>2018-10-28T14:45:18Z</time>
      </trkpt>
      <trkpt lat="49.2818" lon="-0.4643">
        <ele>46.28</ele>
        <time>2018-10-28T14:45:19Z</time>
      </trkpt>
      <trkpt lat="49.28179" lon="-0.46457">
        <ele>44.84</ele>
        <time>2018-10-28T14:45:33Z</time>
      </trkpt>
      <trkpt lat="49.28179" lon="-0.46458">
        <ele>41.95</ele>
        <time>2018-10-28T14:45:34Z</time>
      </trkpt>
      <trkpt lat="49.28179" lon="-0.4646">
        <ele>46.28</ele>
        <time>2018-10-28T14:45:35Z</time>
      </trkpt>
      <trkpt lat="49.28179" lon="-0.46462">
        <ele>46.28</ele>
        <time>2018-10-28T14:45:36Z</time>
      </trkpt>
      <trkpt lat="49.28178" lon="-0.4648">
        <ele>45.32</ele>
        <time>2018-10-28T14:45:50Z</time>
      </trkpt>
      <trkpt lat="49.28177" lon="-0.46484">
        <ele>47.24</ele>
        <time>2018-10-28T14:45:55Z</time>
      </trkpt>
      <trkpt lat="49.28175" lon="-0.46513">
        <ele>46.28</ele>
        <time>2018-10-28T14:46:10Z</time>
      </trkpt>
      <trkpt lat="49.28172" lon="-0.46541">
        <ele>47.72</ele>
        <time>2018-10-28T14:46:24Z</time>
      </trkpt>
      <trkpt lat="49.2817" lon="-0.46573">
        <ele>48.2</ele>
        <time>2018-10-28T14:46:40Z</time>
      </trkpt>
      <trkpt lat="49.28168" lon="-0.46596">
        <ele>48.68</ele>
        <time>2018-10-28T14:46:52Z</time>
      </trkpt>
      <trkpt lat="49.28166" lon="-0.46624">
        <ele>47.72</ele>
        <time>2018-10-28T14:47:06Z</time>
      </trkpt>
      <trkpt lat="49.28164" lon="-0.46652">
        <ele>49.65</ele>
        <time>2018-10-28T14:47:19Z</time>
      </trkpt>
      <trkpt lat="49.28163" lon="-0.46668">
        <ele>48.2</ele>
        <time>2018-10-28T14:47:28Z</time>
      </trkpt>
      <trkpt lat="49.28162" lon="-0.46679">
        <ele>50.13</ele>
        <time>2018-10-28T14:47:33Z</time>
      </trkpt>
      <trkpt lat="49.28162" lon="-0.46688">
        <ele>51.09</ele>
        <time>2018-10-28T14:47:41Z</time>
      </trkpt>
      <trkpt lat="49.28161" lon="-0.4669">
        <ele>50.61</ele>
        <time>2018-10-28T14:47:42Z</time>
      </trkpt>
      <trkpt lat="49.28161" lon="-0.46694">
        <ele>49.16</ele>
        <time>2018-10-28T14:47:44Z</time>
      </trkpt>
      <trkpt lat="49.28159" lon="-0.46731">
        <ele>48.68</ele>
        <time>2018-10-28T14:48:02Z</time>
      </trkpt>
      <trkpt lat="49.28158" lon="-0.46753">
        <ele>51.09</ele>
        <time>2018-10-28T14:48:12Z</time>
      </trkpt>
      <trkpt lat="49.28159" lon="-0.46757">
        <ele>50.13</ele>
        <time>2018-10-28T14:48:14Z</time>
      </trkpt>
      <trkpt lat="49.28156" lon="-0.46782">
        <ele>50.61</ele>
        <time>2018-10-28T14:48:26Z</time>
      </trkpt>
      <trkpt lat="49.28155" lon="-0.4681">
        <ele>50.61</ele>
        <time>2018-10-28T14:48:40Z</time>
      </trkpt>
      <trkpt lat="49.28154" lon="-0.46845">
        <ele>49.65</ele>
        <time>2018-10-28T14:48:58Z</time>
      </trkpt>
      <trkpt lat="49.28153" lon="-0.46875">
        <ele>49.16</ele>
        <time>2018-10-28T14:49:13Z</time>
      </trkpt>
      <trkpt lat="49.28153" lon="-0.46902">
        <ele>48.2</ele>
        <time>2018-10-28T14:49:27Z</time>
      </trkpt>
      <trkpt lat="49.28152" lon="-0.46936">
        <ele>49.16</ele>
        <time>2018-10-28T14:49:41Z</time>
      </trkpt>
      <trkpt lat="49.28153" lon="-0.46955">
        <ele>49.16</ele>
        <time>2018-10-28T14:49:50Z</time>
      </trkpt>
      <trkpt lat="49.28152" lon="-0.46984">
        <ele>48.2</ele>
        <time>2018-10-28T14:50:05Z</time>
      </trkpt>
      <trkpt lat="49.28151" lon="-0.47006">
        <ele>49.65</ele>
        <time>2018-10-28T14:50:17Z</time>
      </trkpt>
      <trkpt lat="49.2815" lon="-0.47045">
        <ele>48.2</ele>
        <time>2018-10-28T14:50:34Z</time>
      </trkpt>
      <trkpt lat="49.2815" lon="-0.47073">
        <ele>50.61</ele>
        <time>2018-10-28T14:50:50Z</time>
      </trkpt>
      <trkpt lat="49.2815" lon="-0.47082">
        <ele>49.16</ele>
        <time>2018-10-28T14:50:54Z</time>
      </trkpt>
      <trkpt lat="49.28148" lon="-0.47121">
        <ele>48.68</ele>
        <time>2018-10-28T14:51:12Z</time>
      </trkpt>
      <trkpt lat="49.28147" lon="-0.4715">
        <ele>50.61</ele>
        <time>2018-10-28T14:51:26Z</time>
      </trkpt>
      <trkpt lat="49.28147" lon="-0.47151">
        <ele>48.68</ele>
        <time>2018-10-28T14:51:27Z</time>
      </trkpt>
      <trkpt lat="49.28147" lon="-0.47153">
        <ele>48.68</ele>
        <time>2018-10-28T14:51:28Z</time>
      </trkpt>
      <trkpt lat="49.28145" lon="-0.47179">
        <ele>51.09</ele>
        <time>2018-10-28T14:51:40Z</time>
      </trkpt>
      <trkpt lat="49.28145" lon="-0.47183">
        <ele>51.09</ele>
        <time>2018-10-28T14:51:42Z</time>
      </trkpt>
      <trkpt lat="49.28145" lon="-0.47185">
        <ele>49.16</ele>
        <time>2018-10-28T14:51:43Z</time>
      </trkpt>
      <trkpt lat="49.28145" lon="-0.47187">
        <ele>49.16</ele>
        <time>2018-10-28T14:51:44Z</time>
      </trkpt>
      <trkpt lat="49.28145" lon="-0.47189">
        <ele>49.16</ele>
        <time>2018-10-28T14:51:45Z</time>
      </trkpt>
      <trkpt lat="49.28145" lon="-0.47191">
        <ele>49.16</ele>
        <time>2018-10-28T14:51:46Z</time>
      </trkpt>
      <trkpt lat="49.28145" lon="-0.47193">
        <ele>49.16</ele>
        <time>2018-10-28T14:51:47Z</time>
      </trkpt>
      <trkpt lat="49.28145" lon="-0.47195">
        <ele>49.16</ele>
        <time>2018-10-28T14:51:48Z</time>
      </trkpt>
      <trkpt lat="49.28144" lon="-0.47196">
        <ele>50.61</ele>
        <time>2018-10-28T14:51:49Z</time>
      </trkpt>
      <trkpt lat="49.28144" lon="-0.47198">
        <ele>50.61</ele>
        <time>2018-10-28T14:51:50Z</time>
      </trkpt>
      <trkpt lat="49.28144" lon="-0.472">
        <ele>50.61</ele>
        <time>2018-10-28T14:51:51Z</time>
      </trkpt>
      <trkpt lat="49.28144" lon="-0.47215">
        <ele>49.65</ele>
        <time>2018-10-28T14:51:59Z</time>
      </trkpt>
      <trkpt lat="49.28143" lon="-0.47222">
        <ele>51.09</ele>
        <time>2018-10-28T14:52:02Z</time>
      </trkpt>
      <trkpt lat="49.28143" lon="-0.47248">
        <ele>51.57</ele>
        <time>2018-10-28T14:52:14Z</time>
      </trkpt>
      <trkpt lat="49.28143" lon="-0.47257">
        <ele>49.65</ele>
        <time>2018-10-28T14:52:19Z</time>
      </trkpt>
      <trkpt lat="49.2814" lon="-0.47293">
        <ele>51.09</ele>
        <time>2018-10-28T14:52:36Z</time>
      </trkpt>
      <trkpt lat="49.2814" lon="-0.473">
        <ele>49.16</ele>
        <time>2018-10-28T14:52:40Z</time>
      </trkpt>
      <trkpt lat="49.28139" lon="-0.47304">
        <ele>51.09</ele>
        <time>2018-10-28T14:52:42Z</time>
      </trkpt>
      <trkpt lat="49.28138" lon="-0.47325">
        <ele>51.57</ele>
        <time>2018-10-28T14:52:52Z</time>
      </trkpt>
      <trkpt lat="49.28138" lon="-0.47329">
        <ele>53.01</ele>
        <time>2018-10-28T14:52:54Z</time>
      </trkpt>
      <trkpt lat="49.28138" lon="-0.47338">
        <ele>51.57</ele>
        <time>2018-10-28T14:52:58Z</time>
      </trkpt>
      <trkpt lat="49.28136" lon="-0.47384">
        <ele>50.61</ele>
        <time>2018-10-28T14:53:20Z</time>
      </trkpt>
      <trkpt lat="49.28136" lon="-0.47388">
        <ele>52.53</ele>
        <time>2018-10-28T14:53:22Z</time>
      </trkpt>
      <trkpt lat="49.28136" lon="-0.47387">
        <ele>49.16</ele>
        <time>2018-10-28T14:53:26Z</time>
      </trkpt>
      <trkpt lat="49.28136" lon="-0.47388">
        <ele>52.53</ele>
        <time>2018-10-28T14:53:27Z</time>
      </trkpt>
      <trkpt lat="49.28134" lon="-0.47413">
        <ele>50.13</ele>
        <time>2018-10-28T14:53:40Z</time>
      </trkpt>
      <trkpt lat="49.28132" lon="-0.47445">
        <ele>53.01</ele>
        <time>2018-10-28T14:53:57Z</time>
      </trkpt>
      <trkpt lat="49.2813" lon="-0.47471">
        <ele>53.01</ele>
        <time>2018-10-28T14:54:10Z</time>
      </trkpt>
      <trkpt lat="49.2813" lon="-0.47478">
        <ele>54.93</ele>
        <time>2018-10-28T14:54:14Z</time>
      </trkpt>
      <trkpt lat="49.2813" lon="-0.4748">
        <ele>53.01</ele>
        <time>2018-10-28T14:54:15Z</time>
      </trkpt>
      <trkpt lat="49.28129" lon="-0.47482">
        <ele>55.89</ele>
        <time>2018-10-28T14:54:16Z</time>
      </trkpt>
      <trkpt lat="49.28129" lon="-0.47484">
        <ele>55.89</ele>
        <time>2018-10-28T14:54:17Z</time>
      </trkpt>
      <trkpt lat="49.28129" lon="-0.47486">
        <ele>52.53</ele>
        <time>2018-10-28T14:54:18Z</time>
      </trkpt>
      <trkpt lat="49.28129" lon="-0.47489">
        <ele>52.53</ele>
        <time>2018-10-28T14:54:19Z</time>
      </trkpt>
      <trkpt lat="49.28129" lon="-0.4749">
        <ele>52.53</ele>
        <time>2018-10-28T14:54:20Z</time>
      </trkpt>
      <trkpt lat="49.28129" lon="-0.47492">
        <ele>53.97</ele>
        <time>2018-10-28T14:54:21Z</time>
      </trkpt>
      <trkpt lat="49.28128" lon="-0.47495">
        <ele>52.53</ele>
        <time>2018-10-28T14:54:22Z</time>
      </trkpt>
      <trkpt lat="49.28128" lon="-0.47497">
        <ele>51.57</ele>
        <time>2018-10-28T14:54:23Z</time>
      </trkpt>
      <trkpt lat="49.28127" lon="-0.47502">
        <ele>54.93</ele>
        <time>2018-10-28T14:54:25Z</time>
      </trkpt>
      <trkpt lat="49.28127" lon="-0.47506">
        <ele>50.61</ele>
        <time>2018-10-28T14:54:27Z</time>
      </trkpt>
      <trkpt lat="49.28126" lon="-0.47508">
        <ele>58.3</ele>
        <time>2018-10-28T14:54:28Z</time>
      </trkpt>
      <trkpt lat="49.28126" lon="-0.4751">
        <ele>54.45</ele>
        <time>2018-10-28T14:54:29Z</time>
      </trkpt>
      <trkpt lat="49.28126" lon="-0.47512">
        <ele>53.97</ele>
        <time>2018-10-28T14:54:30Z</time>
      </trkpt>
      <trkpt lat="49.28126" lon="-0.47516">
        <ele>52.53</ele>
        <time>2018-10-28T14:54:32Z</time>
      </trkpt>
      <trkpt lat="49.28121" lon="-0.47551">
        <ele>53.49</ele>
        <time>2018-10-28T14:54:50Z</time>
      </trkpt>
      <trkpt lat="49.28121" lon="-0.47554">
        <ele>53.49</ele>
        <time>2018-10-28T14:54:51Z</time>
      </trkpt>
      <trkpt lat="49.2812" lon="-0.4756">
        <ele>52.05</ele>
        <time>2018-10-28T14:54:54Z</time>
      </trkpt>
      <trkpt lat="49.28119" lon="-0.47588">
        <ele>53.01</ele>
        <time>2018-10-28T14:55:10Z</time>
      </trkpt>
      <trkpt lat="49.2812" lon="-0.47604">
        <ele>53.01</ele>
        <time>2018-10-28T14:55:20Z</time>
      </trkpt>
      <trkpt lat="49.28121" lon="-0.47611">
        <ele>51.09</ele>
        <time>2018-10-28T14:55:24Z</time>
      </trkpt>
      <trkpt lat="49.28121" lon="-0.47644">
        <ele>52.53</ele>
        <time>2018-10-28T14:55:40Z</time>
      </trkpt>
      <trkpt lat="49.28121" lon="-0.47672">
        <ele>52.53</ele>
        <time>2018-10-28T14:55:54Z</time>
      </trkpt>
      <trkpt lat="49.28121" lon="-0.4768">
        <ele>54.93</ele>
        <time>2018-10-28T14:55:58Z</time>
      </trkpt>
      <trkpt lat="49.28121" lon="-0.4769">
        <ele>53.49</ele>
        <time>2018-10-28T14:56:03Z</time>
      </trkpt>
      <trkpt lat="49.28121" lon="-0.47714">
        <ele>54.93</ele>
        <time>2018-10-28T14:56:15Z</time>
      </trkpt>
      <trkpt lat="49.28121" lon="-0.47721">
        <ele>53.49</ele>
        <time>2018-10-28T14:56:18Z</time>
      </trkpt>
      <trkpt lat="49.2812" lon="-0.47756">
        <ele>54.93</ele>
        <time>2018-10-28T14:56:35Z</time>
      </trkpt>
      <trkpt lat="49.2812" lon="-0.47777">
        <ele>54.93</ele>
        <time>2018-10-28T14:56:47Z</time>
      </trkpt>
      <trkpt lat="49.28119" lon="-0.47801">
        <ele>55.41</ele>
        <time>2018-10-28T14:56:58Z</time>
      </trkpt>
      <trkpt lat="49.28117" lon="-0.47821">
        <ele>54.93</ele>
        <time>2018-10-28T14:57:10Z</time>
      </trkpt>
      <trkpt lat="49.28114" lon="-0.47847">
        <ele>55.89</ele>
        <time>2018-10-28T14:57:24Z</time>
      </trkpt>
      <trkpt lat="49.28107" lon="-0.47878">
        <ele>55.89</ele>
        <time>2018-10-28T14:57:39Z</time>
      </trkpt>
      <trkpt lat="49.28092" lon="-0.47901">
        <ele>54.45</ele>
        <time>2018-10-28T14:57:56Z</time>
      </trkpt>
      <trkpt lat="49.28091" lon="-0.47903">
        <ele>55.89</ele>
        <time>2018-10-28T14:57:57Z</time>
      </trkpt>
      <trkpt lat="49.2809" lon="-0.47905">
        <ele>55.89</ele>
        <time>2018-10-28T14:57:58Z</time>
      </trkpt>
      <trkpt lat="49.28075" lon="-0.47924">
        <ele>56.37</ele>
        <time>2018-10-28T14:58:13Z</time>
      </trkpt>
      <trkpt lat="49.2806" lon="-0.47942">
        <ele>56.86</ele>
        <time>2018-10-28T14:58:28Z</time>
      </trkpt>
      <trkpt lat="49.28056" lon="-0.47948">
        <ele>56.86</ele>
        <time>2018-10-28T14:58:32Z</time>
      </trkpt>
      <trkpt lat="49.28055" lon="-0.47949">
        <ele>55.41</ele>
        <time>2018-10-28T14:58:33Z</time>
      </trkpt>
      <trkpt lat="49.28054" lon="-0.47951">
        <ele>56.86</ele>
        <time>2018-10-28T14:58:34Z</time>
      </trkpt>
      <trkpt lat="49.28053" lon="-0.47952">
        <ele>57.34</ele>
        <time>2018-10-28T14:58:35Z</time>
      </trkpt>
      <trkpt lat="49.28052" lon="-0.47953">
        <ele>56.37</ele>
        <time>2018-10-28T14:58:36Z</time>
      </trkpt>
      <trkpt lat="49.28045" lon="-0.47961">
        <ele>55.89</ele>
        <time>2018-10-28T14:58:42Z</time>
      </trkpt>
      <trkpt lat="49.28045" lon="-0.47963">
        <ele>54.93</ele>
        <time>2018-10-28T14:58:43Z</time>
      </trkpt>
      <trkpt lat="49.28044" lon="-0.47964">
        <ele>56.86</ele>
        <time>2018-10-28T14:58:44Z</time>
      </trkpt>
      <trkpt lat="49.28043" lon="-0.47966">
        <ele>56.86</ele>
        <time>2018-10-28T14:58:45Z</time>
      </trkpt>
      <trkpt lat="49.28042" lon="-0.47967">
        <ele>56.86</ele>
        <time>2018-10-28T14:58:46Z</time>
      </trkpt>
      <trkpt lat="49.2804" lon="-0.47969">
        <ele>56.86</ele>
        <time>2018-10-28T14:58:47Z</time>
      </trkpt>
      <trkpt lat="49.28039" lon="-0.4797">
        <ele>56.86</ele>
        <time>2018-10-28T14:58:48Z</time>
      </trkpt>
      <trkpt lat="49.28038" lon="-0.47971">
        <ele>56.86</ele>
        <time>2018-10-28T14:58:49Z</time>
      </trkpt>
      <trkpt lat="49.28025" lon="-0.47985">
        <ele>55.41</ele>
        <time>2018-10-28T14:59:02Z</time>
      </trkpt>
      <trkpt lat="49.28009" lon="-0.48002">
        <ele>55.41</ele>
        <time>2018-10-28T14:59:17Z</time>
      </trkpt>
      <trkpt lat="49.27994" lon="-0.48017">
        <ele>56.37</ele>
        <time>2018-10-28T14:59:31Z</time>
      </trkpt>
      <trkpt lat="49.27993" lon="-0.48017">
        <ele>56.37</ele>
        <time>2018-10-28T14:59:32Z</time>
      </trkpt>
      <trkpt lat="49.27991" lon="-0.48018">
        <ele>56.37</ele>
        <time>2018-10-28T14:59:33Z</time>
      </trkpt>
      <trkpt lat="49.27986" lon="-0.48022">
        <ele>56.37</ele>
        <time>2018-10-28T14:59:38Z</time>
      </trkpt>
      <trkpt lat="49.27985" lon="-0.48023">
        <ele>56.37</ele>
        <time>2018-10-28T14:59:39Z</time>
      </trkpt>
      <trkpt lat="49.27974" lon="-0.48032">
        <ele>55.41</ele>
        <time>2018-10-28T14:59:48Z</time>
      </trkpt>
      <trkpt lat="49.27955" lon="-0.48045">
        <ele>54.93</ele>
        <time>2018-10-28T15:00:04Z</time>
      </trkpt>
      <trkpt lat="49.27953" lon="-0.48047">
        <ele>56.37</ele>
        <time>2018-10-28T15:00:06Z</time>
      </trkpt>
      <trkpt lat="49.27941" lon="-0.48055">
        <ele>58.78</ele>
        <time>2018-10-28T15:00:16Z</time>
      </trkpt>
      <trkpt lat="49.27936" lon="-0.48059">
        <ele>55.41</ele>
        <time>2018-10-28T15:00:21Z</time>
      </trkpt>
      <trkpt lat="49.27926" lon="-0.48067">
        <ele>58.78</ele>
        <time>2018-10-28T15:00:30Z</time>
      </trkpt>
      <trkpt lat="49.27907" lon="-0.4808">
        <ele>56.86</ele>
        <time>2018-10-28T15:00:46Z</time>
      </trkpt>
      <trkpt lat="49.27905" lon="-0.48081">
        <ele>58.3</ele>
        <time>2018-10-28T15:00:48Z</time>
      </trkpt>
      <trkpt lat="49.27901" lon="-0.48084">
        <ele>59.26</ele>
        <time>2018-10-28T15:00:51Z</time>
      </trkpt>
      <trkpt lat="49.279" lon="-0.48085">
        <ele>59.26</ele>
        <time>2018-10-28T15:00:52Z</time>
      </trkpt>
      <trkpt lat="49.27898" lon="-0.48085">
        <ele>57.34</ele>
        <time>2018-10-28T15:00:53Z</time>
      </trkpt>
      <trkpt lat="49.27895" lon="-0.48086">
        <ele>61.18</ele>
        <time>2018-10-28T15:00:55Z</time>
      </trkpt>
      <trkpt lat="49.27885" lon="-0.48092">
        <ele>57.34</ele>
        <time>2018-10-28T15:01:03Z</time>
      </trkpt>
      <trkpt lat="49.27863" lon="-0.48101">
        <ele>55.89</ele>
        <time>2018-10-28T15:01:20Z</time>
      </trkpt>
      <trkpt lat="49.27845" lon="-0.48109">
        <ele>57.34</ele>
        <time>2018-10-28T15:01:34Z</time>
      </trkpt>
      <trkpt lat="49.27843" lon="-0.4811">
        <ele>57.34</ele>
        <time>2018-10-28T15:01:35Z</time>
      </trkpt>
      <trkpt lat="49.2783" lon="-0.48117">
        <ele>56.86</ele>
        <time>2018-10-28T15:01:46Z</time>
      </trkpt>
      <trkpt lat="49.27813" lon="-0.48119">
        <ele>56.86</ele>
        <time>2018-10-28T15:01:58Z</time>
      </trkpt>
      <trkpt lat="49.27812" lon="-0.4812">
        <ele>56.86</ele>
        <time>2018-10-28T15:01:59Z</time>
      </trkpt>
      <trkpt lat="49.2781" lon="-0.48121">
        <ele>56.86</ele>
        <time>2018-10-28T15:02:00Z</time>
      </trkpt>
      <trkpt lat="49.27809" lon="-0.48121">
        <ele>57.82</ele>
        <time>2018-10-28T15:02:01Z</time>
      </trkpt>
      <trkpt lat="49.27807" lon="-0.48122">
        <ele>57.82</ele>
        <time>2018-10-28T15:02:02Z</time>
      </trkpt>
      <trkpt lat="49.27801" lon="-0.48124">
        <ele>58.78</ele>
        <time>2018-10-28T15:02:06Z</time>
      </trkpt>
      <trkpt lat="49.2779" lon="-0.48128">
        <ele>57.82</ele>
        <time>2018-10-28T15:02:14Z</time>
      </trkpt>
      <trkpt lat="49.27779" lon="-0.48129">
        <ele>59.74</ele>
        <time>2018-10-28T15:02:22Z</time>
      </trkpt>
      <trkpt lat="49.27763" lon="-0.48133">
        <ele>58.3</ele>
        <time>2018-10-28T15:02:34Z</time>
      </trkpt>
      <trkpt lat="49.2775" lon="-0.48136">
        <ele>58.78</ele>
        <time>2018-10-28T15:02:45Z</time>
      </trkpt>
      <trkpt lat="49.2774" lon="-0.48138">
        <ele>56.86</ele>
        <time>2018-10-28T15:02:52Z</time>
      </trkpt>
      <trkpt lat="49.27738" lon="-0.48138">
        <ele>57.82</ele>
        <time>2018-10-28T15:02:54Z</time>
      </trkpt>
      <trkpt lat="49.27715" lon="-0.48143">
        <ele>59.26</ele>
        <time>2018-10-28T15:03:10Z</time>
      </trkpt>
      <trkpt lat="49.27706" lon="-0.48144">
        <ele>61.66</ele>
        <time>2018-10-28T15:03:16Z</time>
      </trkpt>
      <trkpt lat="49.27701" lon="-0.48145">
        <ele>58.78</ele>
        <time>2018-10-28T15:03:20Z</time>
      </trkpt>
      <trkpt lat="49.27697" lon="-0.48146">
        <ele>60.22</ele>
        <time>2018-10-28T15:03:23Z</time>
      </trkpt>
      <trkpt lat="49.27687" lon="-0.4815">
        <ele>58.78</ele>
        <time>2018-10-28T15:03:31Z</time>
      </trkpt>
      <trkpt lat="49.27663" lon="-0.48155">
        <ele>58.78</ele>
        <time>2018-10-28T15:03:49Z</time>
      </trkpt>
      <trkpt lat="49.2764" lon="-0.48159">
        <ele>57.34</ele>
        <time>2018-10-28T15:04:06Z</time>
      </trkpt>
      <trkpt lat="49.2762" lon="-0.48165">
        <ele>58.3</ele>
        <time>2018-10-28T15:04:21Z</time>
      </trkpt>
      <trkpt lat="49.276" lon="-0.48171">
        <ele>58.78</ele>
        <time>2018-10-28T15:04:36Z</time>
      </trkpt>
      <trkpt lat="49.27579" lon="-0.48173">
        <ele>56.86</ele>
        <time>2018-10-28T15:04:52Z</time>
      </trkpt>
      <trkpt lat="49.27574" lon="-0.48173">
        <ele>58.3</ele>
        <time>2018-10-28T15:04:56Z</time>
      </trkpt>
      <trkpt lat="49.27558" lon="-0.48178">
        <ele>58.3</ele>
        <time>2018-10-28T15:05:08Z</time>
      </trkpt>
      <trkpt lat="49.27541" lon="-0.48184">
        <ele>56.37</ele>
        <time>2018-10-28T15:05:21Z</time>
      </trkpt>
      <trkpt lat="49.27537" lon="-0.48185">
        <ele>59.26</ele>
        <time>2018-10-28T15:05:25Z</time>
      </trkpt>
      <trkpt lat="49.27535" lon="-0.48184">
        <ele>55.89</ele>
        <time>2018-10-28T15:05:26Z</time>
      </trkpt>
      <trkpt lat="49.27534" lon="-0.48185">
        <ele>55.89</ele>
        <time>2018-10-28T15:05:27Z</time>
      </trkpt>
      <trkpt lat="49.27515" lon="-0.48189">
        <ele>56.37</ele>
        <time>2018-10-28T15:05:42Z</time>
      </trkpt>
      <trkpt lat="49.27513" lon="-0.4819">
        <ele>55.89</ele>
        <time>2018-10-28T15:05:44Z</time>
      </trkpt>
      <trkpt lat="49.27512" lon="-0.4819">
        <ele>55.89</ele>
        <time>2018-10-28T15:05:45Z</time>
      </trkpt>
      <trkpt lat="49.2751" lon="-0.4819">
        <ele>55.89</ele>
        <time>2018-10-28T15:05:46Z</time>
      </trkpt>
      <trkpt lat="49.27509" lon="-0.48191">
        <ele>55.89</ele>
        <time>2018-10-28T15:05:47Z</time>
      </trkpt>
      <trkpt lat="49.27508" lon="-0.48191">
        <ele>55.89</ele>
        <time>2018-10-28T15:05:48Z</time>
      </trkpt>
      <trkpt lat="49.27506" lon="-0.48192">
        <ele>55.89</ele>
        <time>2018-10-28T15:05:49Z</time>
      </trkpt>
      <trkpt lat="49.27505" lon="-0.48192">
        <ele>55.89</ele>
        <time>2018-10-28T15:05:50Z</time>
      </trkpt>
      <trkpt lat="49.27487" lon="-0.48196">
        <ele>55.89</ele>
        <time>2018-10-28T15:06:06Z</time>
      </trkpt>
      <trkpt lat="49.27473" lon="-0.48199">
        <ele>56.86</ele>
        <time>2018-10-28T15:06:18Z</time>
      </trkpt>
      <trkpt lat="49.27467" lon="-0.48201">
        <ele>55.89</ele>
        <time>2018-10-28T15:06:24Z</time>
      </trkpt>
      <trkpt lat="49.27466" lon="-0.48201">
        <ele>55.89</ele>
        <time>2018-10-28T15:06:25Z</time>
      </trkpt>
      <trkpt lat="49.27453" lon="-0.48204">
        <ele>57.34</ele>
        <time>2018-10-28T15:06:35Z</time>
      </trkpt>
      <trkpt lat="49.2744" lon="-0.48209">
        <ele>55.89</ele>
        <time>2018-10-28T15:06:45Z</time>
      </trkpt>
      <trkpt lat="49.27438" lon="-0.48209">
        <ele>55.89</ele>
        <time>2018-10-28T15:06:47Z</time>
      </trkpt>
      <trkpt lat="49.27437" lon="-0.4821">
        <ele>55.89</ele>
        <time>2018-10-28T15:06:48Z</time>
      </trkpt>
      <trkpt lat="49.27436" lon="-0.4821">
        <ele>55.89</ele>
        <time>2018-10-28T15:06:49Z</time>
      </trkpt>
      <trkpt lat="49.27435" lon="-0.4821">
        <ele>55.89</ele>
        <time>2018-10-28T15:06:50Z</time>
      </trkpt>
      <trkpt lat="49.2742" lon="-0.48213">
        <ele>55.89</ele>
        <time>2018-10-28T15:07:01Z</time>
      </trkpt>
      <trkpt lat="49.274" lon="-0.48219">
        <ele>55.89</ele>
        <time>2018-10-28T15:07:17Z</time>
      </trkpt>
      <trkpt lat="49.27378" lon="-0.48223">
        <ele>57.34</ele>
        <time>2018-10-28T15:07:32Z</time>
      </trkpt>
      <trkpt lat="49.27368" lon="-0.48226">
        <ele>56.37</ele>
        <time>2018-10-28T15:07:38Z</time>
      </trkpt>
      <trkpt lat="49.27353" lon="-0.4823">
        <ele>58.78</ele>
        <time>2018-10-28T15:07:50Z</time>
      </trkpt>
      <trkpt lat="49.27347" lon="-0.48231">
        <ele>57.34</ele>
        <time>2018-10-28T15:07:54Z</time>
      </trkpt>
      <trkpt lat="49.27346" lon="-0.48232">
        <ele>57.34</ele>
        <time>2018-10-28T15:07:55Z</time>
      </trkpt>
      <trkpt lat="49.27345" lon="-0.48232">
        <ele>58.78</ele>
        <time>2018-10-28T15:07:56Z</time>
      </trkpt>
      <trkpt lat="49.27343" lon="-0.48233">
        <ele>58.78</ele>
        <time>2018-10-28T15:07:57Z</time>
      </trkpt>
      <trkpt lat="49.27342" lon="-0.48233">
        <ele>58.78</ele>
        <time>2018-10-28T15:07:58Z</time>
      </trkpt>
      <trkpt lat="49.2732" lon="-0.48238">
        <ele>59.26</ele>
        <time>2018-10-28T15:08:14Z</time>
      </trkpt>
      <trkpt lat="49.27312" lon="-0.4824">
        <ele>57.82</ele>
        <time>2018-10-28T15:08:20Z</time>
      </trkpt>
      <trkpt lat="49.273" lon="-0.48242">
        <ele>59.26</ele>
        <time>2018-10-28T15:08:29Z</time>
      </trkpt>
      <trkpt lat="49.27298" lon="-0.48242">
        <ele>57.82</ele>
        <time>2018-10-28T15:08:31Z</time>
      </trkpt>
      <trkpt lat="49.27284" lon="-0.48247">
        <ele>57.34</ele>
        <time>2018-10-28T15:08:41Z</time>
      </trkpt>
      <trkpt lat="49.27281" lon="-0.48248">
        <ele>58.78</ele>
        <time>2018-10-28T15:08:44Z</time>
      </trkpt>
      <trkpt lat="49.27268" lon="-0.4825">
        <ele>57.34</ele>
        <time>2018-10-28T15:08:55Z</time>
      </trkpt>
      <trkpt lat="49.27248" lon="-0.48253">
        <ele>57.82</ele>
        <time>2018-10-28T15:09:09Z</time>
      </trkpt>
      <trkpt lat="49.27233" lon="-0.48259">
        <ele>59.26</ele>
        <time>2018-10-28T15:09:21Z</time>
      </trkpt>
      <trkpt lat="49.27227" lon="-0.4826">
        <ele>56.86</ele>
        <time>2018-10-28T15:09:25Z</time>
      </trkpt>
      <trkpt lat="49.27207" lon="-0.48265">
        <ele>55.89</ele>
        <time>2018-10-28T15:09:40Z</time>
      </trkpt>
      <trkpt lat="49.27192" lon="-0.48267">
        <ele>56.86</ele>
        <time>2018-10-28T15:09:50Z</time>
      </trkpt>
      <trkpt lat="49.27182" lon="-0.4827">
        <ele>57.34</ele>
        <time>2018-10-28T15:09:58Z</time>
      </trkpt>
      <trkpt lat="49.27181" lon="-0.48271">
        <ele>57.34</ele>
        <time>2018-10-28T15:09:59Z</time>
      </trkpt>
      <trkpt lat="49.2718" lon="-0.48272">
        <ele>57.34</ele>
        <time>2018-10-28T15:10:00Z</time>
      </trkpt>
      <trkpt lat="49.27178" lon="-0.48272">
        <ele>58.3</ele>
        <time>2018-10-28T15:10:01Z</time>
      </trkpt>
      <trkpt lat="49.27177" lon="-0.48273">
        <ele>58.3</ele>
        <time>2018-10-28T15:10:02Z</time>
      </trkpt>
      <trkpt lat="49.27174" lon="-0.48277">
        <ele>57.82</ele>
        <time>2018-10-28T15:10:15Z</time>
      </trkpt>
      <trkpt lat="49.27174" lon="-0.48279">
        <ele>57.82</ele>
        <time>2018-10-28T15:10:16Z</time>
      </trkpt>
      <trkpt lat="49.27174" lon="-0.4828">
        <ele>57.82</ele>
        <time>2018-10-28T15:10:17Z</time>
      </trkpt>
      <trkpt lat="49.27175" lon="-0.48284">
        <ele>58.78</ele>
        <time>2018-10-28T15:10:19Z</time>
      </trkpt>
      <trkpt lat="49.27181" lon="-0.48307">
        <ele>57.34</ele>
        <time>2018-10-28T15:10:33Z</time>
      </trkpt>
      <trkpt lat="49.27184" lon="-0.48332">
        <ele>55.89</ele>
        <time>2018-10-28T15:10:45Z</time>
      </trkpt>
      <trkpt lat="49.27173" lon="-0.48343">
        <ele>55.89</ele>
        <time>2018-10-28T15:10:56Z</time>
      </trkpt>
      <trkpt lat="49.27158" lon="-0.48348">
        <ele>56.37</ele>
        <time>2018-10-28T15:11:07Z</time>
      </trkpt>
      <trkpt lat="49.27145" lon="-0.48351">
        <ele>57.82</ele>
        <time>2018-10-28T15:11:17Z</time>
      </trkpt>
      <trkpt lat="49.27143" lon="-0.48351">
        <ele>55.89</ele>
        <time>2018-10-28T15:11:19Z</time>
      </trkpt>
      <trkpt lat="49.27141" lon="-0.48353">
        <ele>55.41</ele>
        <time>2018-10-28T15:11:21Z</time>
      </trkpt>
      <trkpt lat="49.27128" lon="-0.48357">
        <ele>56.86</ele>
        <time>2018-10-28T15:11:31Z</time>
      </trkpt>
      <trkpt lat="49.27109" lon="-0.48363">
        <ele>57.34</ele>
        <time>2018-10-28T15:11:46Z</time>
      </trkpt>
      <trkpt lat="49.27098" lon="-0.48368">
        <ele>55.89</ele>
        <time>2018-10-28T15:11:55Z</time>
      </trkpt>
      <trkpt lat="49.27095" lon="-0.4837">
        <ele>55.41</ele>
        <time>2018-10-28T15:11:58Z</time>
      </trkpt>
      <trkpt lat="49.27094" lon="-0.48371">
        <ele>55.41</ele>
        <time>2018-10-28T15:11:59Z</time>
      </trkpt>
      <trkpt lat="49.27081" lon="-0.48375">
        <ele>56.86</ele>
        <time>2018-10-28T15:12:10Z</time>
      </trkpt>
      <trkpt lat="49.2707" lon="-0.4838">
        <ele>56.37</ele>
        <time>2018-10-28T15:12:18Z</time>
      </trkpt>
      <trkpt lat="49.27054" lon="-0.48385">
        <ele>54.93</ele>
        <time>2018-10-28T15:12:31Z</time>
      </trkpt>
      <trkpt lat="49.27034" lon="-0.48392">
        <ele>54.93</ele>
        <time>2018-10-28T15:12:46Z</time>
      </trkpt>
      <trkpt lat="49.27015" lon="-0.48399">
        <ele>55.41</ele>
        <time>2018-10-28T15:13:01Z</time>
      </trkpt>
      <trkpt lat="49.26994" lon="-0.48406">
        <ele>54.93</ele>
        <time>2018-10-28T15:13:17Z</time>
      </trkpt>
      <trkpt lat="49.26981" lon="-0.48413">
        <ele>54.45</ele>
        <time>2018-10-28T15:13:26Z</time>
      </trkpt>
      <trkpt lat="49.26968" lon="-0.48417">
        <ele>54.45</ele>
        <time>2018-10-28T15:13:36Z</time>
      </trkpt>
      <trkpt lat="49.26948" lon="-0.48426">
        <ele>52.53</ele>
        <time>2018-10-28T15:13:52Z</time>
      </trkpt>
      <trkpt lat="49.26933" lon="-0.4843">
        <ele>53.01</ele>
        <time>2018-10-28T15:14:05Z</time>
      </trkpt>
      <trkpt lat="49.26929" lon="-0.48432">
        <ele>53.01</ele>
        <time>2018-10-28T15:14:11Z</time>
      </trkpt>
      <trkpt lat="49.26928" lon="-0.48433">
        <ele>53.01</ele>
        <time>2018-10-28T15:14:12Z</time>
      </trkpt>
      <trkpt lat="49.26926" lon="-0.48433">
        <ele>53.97</ele>
        <time>2018-10-28T15:14:13Z</time>
      </trkpt>
      <trkpt lat="49.26925" lon="-0.48434">
        <ele>53.97</ele>
        <time>2018-10-28T15:14:14Z</time>
      </trkpt>
      <trkpt lat="49.26904" lon="-0.48443">
        <ele>53.97</ele>
        <time>2018-10-28T15:14:30Z</time>
      </trkpt>
      <trkpt lat="49.26884" lon="-0.48448">
        <ele>52.05</ele>
        <time>2018-10-28T15:14:45Z</time>
      </trkpt>
      <trkpt lat="49.26865" lon="-0.48457">
        <ele>53.97</ele>
        <time>2018-10-28T15:15:00Z</time>
      </trkpt>
      <trkpt lat="49.26859" lon="-0.48459">
        <ele>53.01</ele>
        <time>2018-10-28T15:15:05Z</time>
      </trkpt>
      <trkpt lat="49.26845" lon="-0.48464">
        <ele>52.53</ele>
        <time>2018-10-28T15:15:18Z</time>
      </trkpt>
      <trkpt lat="49.26825" lon="-0.48472">
        <ele>53.49</ele>
        <time>2018-10-28T15:15:33Z</time>
      </trkpt>
      <trkpt lat="49.26817" lon="-0.48476">
        <ele>52.53</ele>
        <time>2018-10-28T15:15:39Z</time>
      </trkpt>
      <trkpt lat="49.26795" lon="-0.48486">
        <ele>53.01</ele>
        <time>2018-10-28T15:15:55Z</time>
      </trkpt>
      <trkpt lat="49.26779" lon="-0.48491">
        <ele>52.05</ele>
        <time>2018-10-28T15:16:07Z</time>
      </trkpt>
      <trkpt lat="49.26755" lon="-0.48501">
        <ele>51.57</ele>
        <time>2018-10-28T15:16:26Z</time>
      </trkpt>
      <trkpt lat="49.26736" lon="-0.48507">
        <ele>51.09</ele>
        <time>2018-10-28T15:16:40Z</time>
      </trkpt>
      <trkpt lat="49.26719" lon="-0.48515">
        <ele>50.61</ele>
        <time>2018-10-28T15:16:54Z</time>
      </trkpt>
      <trkpt lat="49.267" lon="-0.48521">
        <ele>49.16</ele>
        <time>2018-10-28T15:17:10Z</time>
      </trkpt>
      <trkpt lat="49.26701" lon="-0.48521">
        <ele>49.16</ele>
        <time>2018-10-28T15:17:38Z</time>
      </trkpt>
      <trkpt lat="49.26691" lon="-0.48526">
        <ele>49.16</ele>
        <time>2018-10-28T15:18:03Z</time>
      </trkpt>
      <trkpt lat="49.26668" lon="-0.48533">
        <ele>48.68</ele>
        <time>2018-10-28T15:18:22Z</time>
      </trkpt>
      <trkpt lat="49.26663" lon="-0.48534">
        <ele>50.13</ele>
        <time>2018-10-28T15:18:26Z</time>
      </trkpt>
      <trkpt lat="49.26643" lon="-0.48538">
        <ele>52.05</ele>
        <time>2018-10-28T15:18:42Z</time>
      </trkpt>
      <trkpt lat="49.26631" lon="-0.48539">
        <ele>51.09</ele>
        <time>2018-10-28T15:18:52Z</time>
      </trkpt>
      <trkpt lat="49.26629" lon="-0.48538">
        <ele>51.09</ele>
        <time>2018-10-28T15:18:53Z</time>
      </trkpt>
      <trkpt lat="49.26628" lon="-0.48537">
        <ele>50.61</ele>
        <time>2018-10-28T15:18:54Z</time>
      </trkpt>
      <trkpt lat="49.26628" lon="-0.48536">
        <ele>50.61</ele>
        <time>2018-10-28T15:18:55Z</time>
      </trkpt>
      <trkpt lat="49.26627" lon="-0.48534">
        <ele>50.61</ele>
        <time>2018-10-28T15:18:56Z</time>
      </trkpt>
      <trkpt lat="49.26615" lon="-0.48519">
        <ele>49.65</ele>
        <time>2018-10-28T15:19:10Z</time>
      </trkpt>
      <trkpt lat="49.26615" lon="-0.48519">
        <ele>49.65</ele>
        <time>2018-10-28T15:19:14Z</time>
      </trkpt>
      <trkpt lat="49.26614" lon="-0.48518">
        <ele>49.65</ele>
        <time>2018-10-28T15:19:15Z</time>
      </trkpt>
      <trkpt lat="49.26613" lon="-0.48517">
        <ele>49.16</ele>
        <time>2018-10-28T15:19:16Z</time>
      </trkpt>
      <trkpt lat="49.26612" lon="-0.48515">
        <ele>49.16</ele>
        <time>2018-10-28T15:19:17Z</time>
      </trkpt>
      <trkpt lat="49.26611" lon="-0.48514">
        <ele>49.16</ele>
        <time>2018-10-28T15:19:18Z</time>
      </trkpt>
      <trkpt lat="49.2661" lon="-0.48513">
        <ele>49.16</ele>
        <time>2018-10-28T15:19:19Z</time>
      </trkpt>
      <trkpt lat="49.26595" lon="-0.48492">
        <ele>50.13</ele>
        <time>2018-10-28T15:19:36Z</time>
      </trkpt>
      <trkpt lat="49.2658" lon="-0.4847">
        <ele>49.65</ele>
        <time>2018-10-28T15:19:52Z</time>
      </trkpt>
      <trkpt lat="49.26562" lon="-0.48447">
        <ele>49.65</ele>
        <time>2018-10-28T15:20:10Z</time>
      </trkpt>
      <trkpt lat="49.26547" lon="-0.48428">
        <ele>49.65</ele>
        <time>2018-10-28T15:20:26Z</time>
      </trkpt>
      <trkpt lat="49.2654" lon="-0.48419">
        <ele>51.09</ele>
        <time>2018-10-28T15:20:32Z</time>
      </trkpt>
      <trkpt lat="49.26524" lon="-0.48396">
        <ele>51.09</ele>
        <time>2018-10-28T15:20:48Z</time>
      </trkpt>
      <trkpt lat="49.26509" lon="-0.48377">
        <ele>52.53</ele>
        <time>2018-10-28T15:21:03Z</time>
      </trkpt>
      <trkpt lat="49.26489" lon="-0.48351">
        <ele>52.53</ele>
        <time>2018-10-28T15:21:22Z</time>
      </trkpt>
      <trkpt lat="49.26468" lon="-0.48326">
        <ele>53.01</ele>
        <time>2018-10-28T15:21:43Z</time>
      </trkpt>
      <trkpt lat="49.26448" lon="-0.48306">
        <ele>52.05</ele>
        <time>2018-10-28T15:22:01Z</time>
      </trkpt>
      <trkpt lat="49.26445" lon="-0.48303">
        <ele>53.49</ele>
        <time>2018-10-28T15:22:03Z</time>
      </trkpt>
      <trkpt lat="49.26439" lon="-0.48289">
        <ele>52.05</ele>
        <time>2018-10-28T15:22:14Z</time>
      </trkpt>
      <trkpt lat="49.26442" lon="-0.48289">
        <ele>52.05</ele>
        <time>2018-10-28T15:22:37Z</time>
      </trkpt>
      <trkpt lat="49.2645" lon="-0.48279">
        <ele>52.05</ele>
        <time>2018-10-28T15:22:47Z</time>
      </trkpt>
      <trkpt lat="49.26451" lon="-0.48278">
        <ele>52.05</ele>
        <time>2018-10-28T15:22:48Z</time>
      </trkpt>
      <trkpt lat="49.2647" lon="-0.48259">
        <ele>51.57</ele>
        <time>2018-10-28T15:23:07Z</time>
      </trkpt>
      <trkpt lat="49.26491" lon="-0.48239">
        <ele>51.09</ele>
        <time>2018-10-28T15:23:26Z</time>
      </trkpt>
      <trkpt lat="49.26497" lon="-0.48233">
        <ele>49.65</ele>
        <time>2018-10-28T15:23:31Z</time>
      </trkpt>
      <trkpt lat="49.26498" lon="-0.48232">
        <ele>49.65</ele>
        <time>2018-10-28T15:23:33Z</time>
      </trkpt>
      <trkpt lat="49.265" lon="-0.48232">
        <ele>48.68</ele>
        <time>2018-10-28T15:23:34Z</time>
      </trkpt>
      <trkpt lat="49.26501" lon="-0.48231">
        <ele>46.76</ele>
        <time>2018-10-28T15:23:35Z</time>
      </trkpt>
      <trkpt lat="49.26502" lon="-0.4823">
        <ele>50.61</ele>
        <time>2018-10-28T15:23:36Z</time>
      </trkpt>
      <trkpt lat="49.26503" lon="-0.48228">
        <ele>50.61</ele>
        <time>2018-10-28T15:23:37Z</time>
      </trkpt>
      <trkpt lat="49.26522" lon="-0.48212">
        <ele>51.09</ele>
        <time>2018-10-28T15:23:53Z</time>
      </trkpt>
      <trkpt lat="49.26541" lon="-0.48193">
        <ele>51.09</ele>
        <time>2018-10-28T15:24:10Z</time>
      </trkpt>
      <trkpt lat="49.26554" lon="-0.4818">
        <ele>51.09</ele>
        <time>2018-10-28T15:24:20Z</time>
      </trkpt>
      <trkpt lat="49.26556" lon="-0.48177">
        <ele>51.09</ele>
        <time>2018-10-28T15:24:22Z</time>
      </trkpt>
      <trkpt lat="49.26559" lon="-0.48171">
        <ele>49.65</ele>
        <time>2018-10-28T15:24:27Z</time>
      </trkpt>
      <trkpt lat="49.26561" lon="-0.48169">
        <ele>50.13</ele>
        <time>2018-10-28T15:24:41Z</time>
      </trkpt>
      <trkpt lat="49.26571" lon="-0.48157">
        <ele>51.57</ele>
        <time>2018-10-28T15:24:51Z</time>
      </trkpt>
      <trkpt lat="49.26575" lon="-0.48153">
        <ele>50.13</ele>
        <time>2018-10-28T15:24:55Z</time>
      </trkpt>
      <trkpt lat="49.26591" lon="-0.48135">
        <ele>51.09</ele>
        <time>2018-10-28T15:25:11Z</time>
      </trkpt>
      <trkpt lat="49.26605" lon="-0.4812">
        <ele>52.53</ele>
        <time>2018-10-28T15:25:24Z</time>
      </trkpt>
      <trkpt lat="49.26623" lon="-0.481">
        <ele>53.01</ele>
        <time>2018-10-28T15:25:40Z</time>
      </trkpt>
      <trkpt lat="49.26629" lon="-0.48092">
        <ele>52.53</ele>
        <time>2018-10-28T15:25:53Z</time>
      </trkpt>
      <trkpt lat="49.2663" lon="-0.48091">
        <ele>52.53</ele>
        <time>2018-10-28T15:25:54Z</time>
      </trkpt>
      <trkpt lat="49.26632" lon="-0.48085">
        <ele>51.09</ele>
        <time>2018-10-28T15:25:58Z</time>
      </trkpt>
      <trkpt lat="49.26635" lon="-0.48075">
        <ele>53.97</ele>
        <time>2018-10-28T15:26:04Z</time>
      </trkpt>
      <trkpt lat="49.26636" lon="-0.48053">
        <ele>52.53</ele>
        <time>2018-10-28T15:26:15Z</time>
      </trkpt>
      <trkpt lat="49.26633" lon="-0.48015">
        <ele>51.57</ele>
        <time>2018-10-28T15:26:34Z</time>
      </trkpt>
      <trkpt lat="49.26631" lon="-0.48004">
        <ele>53.97</ele>
        <time>2018-10-28T15:26:39Z</time>
      </trkpt>
      <trkpt lat="49.2663" lon="-0.47971">
        <ele>54.93</ele>
        <time>2018-10-28T15:26:55Z</time>
      </trkpt>
      <trkpt lat="49.2663" lon="-0.4796">
        <ele>53.01</ele>
        <time>2018-10-28T15:27:00Z</time>
      </trkpt>
      <trkpt lat="49.26631" lon="-0.47928">
        <ele>53.49</ele>
        <time>2018-10-28T15:27:15Z</time>
      </trkpt>
      <trkpt lat="49.26631" lon="-0.47923">
        <ele>54.93</ele>
        <time>2018-10-28T15:27:18Z</time>
      </trkpt>
      <trkpt lat="49.26632" lon="-0.47919">
        <ele>53.49</ele>
        <time>2018-10-28T15:27:20Z</time>
      </trkpt>
      <trkpt lat="49.26632" lon="-0.47907">
        <ele>54.45</ele>
        <time>2018-10-28T15:27:25Z</time>
      </trkpt>
      <trkpt lat="49.26634" lon="-0.47874">
        <ele>54.45</ele>
        <time>2018-10-28T15:27:41Z</time>
      </trkpt>
      <trkpt lat="49.26636" lon="-0.47836">
        <ele>55.41</ele>
        <time>2018-10-28T15:27:59Z</time>
      </trkpt>
      <trkpt lat="49.26635" lon="-0.47795">
        <ele>53.97</ele>
        <time>2018-10-28T15:28:18Z</time>
      </trkpt>
      <trkpt lat="49.26634" lon="-0.47784">
        <ele>53.97</ele>
        <time>2018-10-28T15:28:24Z</time>
      </trkpt>
      <trkpt lat="49.26634" lon="-0.4778">
        <ele>55.89</ele>
        <time>2018-10-28T15:28:26Z</time>
      </trkpt>
      <trkpt lat="49.26632" lon="-0.4775">
        <ele>54.93</ele>
        <time>2018-10-28T15:28:41Z</time>
      </trkpt>
      <trkpt lat="49.26631" lon="-0.47744">
        <ele>56.37</ele>
        <time>2018-10-28T15:28:44Z</time>
      </trkpt>
      <trkpt lat="49.26631" lon="-0.4774">
        <ele>55.41</ele>
        <time>2018-10-28T15:28:46Z</time>
      </trkpt>
      <trkpt lat="49.26627" lon="-0.47709">
        <ele>56.37</ele>
        <time>2018-10-28T15:29:02Z</time>
      </trkpt>
      <trkpt lat="49.26627" lon="-0.47707">
        <ele>55.89</ele>
        <time>2018-10-28T15:29:03Z</time>
      </trkpt>
      <trkpt lat="49.26626" lon="-0.47701">
        <ele>58.78</ele>
        <time>2018-10-28T15:29:06Z</time>
      </trkpt>
      <trkpt lat="49.26625" lon="-0.47691">
        <ele>55.89</ele>
        <time>2018-10-28T15:29:11Z</time>
      </trkpt>
      <trkpt lat="49.26624" lon="-0.47677">
        <ele>53.97</ele>
        <time>2018-10-28T15:29:18Z</time>
      </trkpt>
      <trkpt lat="49.26623" lon="-0.47666">
        <ele>57.34</ele>
        <time>2018-10-28T15:29:23Z</time>
      </trkpt>
      <trkpt lat="49.26623" lon="-0.47664">
        <ele>57.34</ele>
        <time>2018-10-28T15:29:24Z</time>
      </trkpt>
      <trkpt lat="49.26622" lon="-0.4765">
        <ele>54.93</ele>
        <time>2018-10-28T15:29:31Z</time>
      </trkpt>
      <trkpt lat="49.26621" lon="-0.47645">
        <ele>51.09</ele>
        <time>2018-10-28T15:29:34Z</time>
      </trkpt>
      <trkpt lat="49.26621" lon="-0.47643">
        <ele>51.09</ele>
        <time>2018-10-28T15:29:35Z</time>
      </trkpt>
      <trkpt lat="49.2662" lon="-0.47637">
        <ele>53.01</ele>
        <time>2018-10-28T15:29:38Z</time>
      </trkpt>
      <trkpt lat="49.2662" lon="-0.47634">
        <ele>56.37</ele>
        <time>2018-10-28T15:29:40Z</time>
      </trkpt>
      <trkpt lat="49.26619" lon="-0.47632">
        <ele>56.37</ele>
        <time>2018-10-28T15:29:41Z</time>
      </trkpt>
      <trkpt lat="49.26618" lon="-0.47615">
        <ele>58.3</ele>
        <time>2018-10-28T15:29:49Z</time>
      </trkpt>
      <trkpt lat="49.26617" lon="-0.47596">
        <ele>56.86</ele>
        <time>2018-10-28T15:29:58Z</time>
      </trkpt>
      <trkpt lat="49.26615" lon="-0.47588">
        <ele>57.82</ele>
        <time>2018-10-28T15:30:02Z</time>
      </trkpt>
      <trkpt lat="49.26615" lon="-0.47573">
        <ele>56.37</ele>
        <time>2018-10-28T15:30:09Z</time>
      </trkpt>
      <trkpt lat="49.26614" lon="-0.47569">
        <ele>58.3</ele>
        <time>2018-10-28T15:30:11Z</time>
      </trkpt>
      <trkpt lat="49.26612" lon="-0.47558">
        <ele>56.37</ele>
        <time>2018-10-28T15:30:17Z</time>
      </trkpt>
      <trkpt lat="49.26609" lon="-0.47541">
        <ele>58.3</ele>
        <time>2018-10-28T15:30:28Z</time>
      </trkpt>
      <trkpt lat="49.26608" lon="-0.47535">
        <ele>56.86</ele>
        <time>2018-10-28T15:30:31Z</time>
      </trkpt>
      <trkpt lat="49.26607" lon="-0.47531">
        <ele>58.78</ele>
        <time>2018-10-28T15:30:33Z</time>
      </trkpt>
      <trkpt lat="49.26605" lon="-0.47519">
        <ele>57.34</ele>
        <time>2018-10-28T15:30:38Z</time>
      </trkpt>
      <trkpt lat="49.26598" lon="-0.47479">
        <ele>55.41</ele>
        <time>2018-10-28T15:30:58Z</time>
      </trkpt>
      <trkpt lat="49.2659" lon="-0.47438">
        <ele>54.45</ele>
        <time>2018-10-28T15:31:18Z</time>
      </trkpt>
      <trkpt lat="49.26585" lon="-0.4741">
        <ele>54.93</ele>
        <time>2018-10-28T15:31:32Z</time>
      </trkpt>
      <trkpt lat="49.26579" lon="-0.47375">
        <ele>54.45</ele>
        <time>2018-10-28T15:31:50Z</time>
      </trkpt>
      <trkpt lat="49.26572" lon="-0.47343">
        <ele>53.49</ele>
        <time>2018-10-28T15:32:07Z</time>
      </trkpt>
      <trkpt lat="49.26568" lon="-0.47327">
        <ele>54.93</ele>
        <time>2018-10-28T15:32:15Z</time>
      </trkpt>
      <trkpt lat="49.26561" lon="-0.47301">
        <ele>54.45</ele>
        <time>2018-10-28T15:32:29Z</time>
      </trkpt>
      <trkpt lat="49.26553" lon="-0.47273">
        <ele>54.93</ele>
        <time>2018-10-28T15:32:43Z</time>
      </trkpt>
      <trkpt lat="49.26549" lon="-0.4726">
        <ele>56.37</ele>
        <time>2018-10-28T15:32:50Z</time>
      </trkpt>
      <trkpt lat="49.26547" lon="-0.47252">
        <ele>54.93</ele>
        <time>2018-10-28T15:32:54Z</time>
      </trkpt>
      <trkpt lat="49.26546" lon="-0.47248">
        <ele>53.01</ele>
        <time>2018-10-28T15:32:56Z</time>
      </trkpt>
      <trkpt lat="49.26544" lon="-0.4724">
        <ele>54.45</ele>
        <time>2018-10-28T15:33:00Z</time>
      </trkpt>
      <trkpt lat="49.26539" lon="-0.47226">
        <ele>55.89</ele>
        <time>2018-10-28T15:33:07Z</time>
      </trkpt>
      <trkpt lat="49.26528" lon="-0.47189">
        <ele>54.45</ele>
        <time>2018-10-28T15:33:26Z</time>
      </trkpt>
      <trkpt lat="49.26526" lon="-0.47185">
        <ele>53.01</ele>
        <time>2018-10-28T15:33:30Z</time>
      </trkpt>
      <trkpt lat="49.26525" lon="-0.47183">
        <ele>53.01</ele>
        <time>2018-10-28T15:33:31Z</time>
      </trkpt>
      <trkpt lat="49.26524" lon="-0.47174">
        <ele>54.45</ele>
        <time>2018-10-28T15:33:37Z</time>
      </trkpt>
      <trkpt lat="49.26519" lon="-0.47158">
        <ele>53.49</ele>
        <time>2018-10-28T15:33:45Z</time>
      </trkpt>
      <trkpt lat="49.26519" lon="-0.47156">
        <ele>54.93</ele>
        <time>2018-10-28T15:33:46Z</time>
      </trkpt>
      <trkpt lat="49.26518" lon="-0.47154">
        <ele>50.61</ele>
        <time>2018-10-28T15:33:50Z</time>
      </trkpt>
      <trkpt lat="49.26517" lon="-0.47154">
        <ele>50.61</ele>
        <time>2018-10-28T15:33:51Z</time>
      </trkpt>
      <trkpt lat="49.26517" lon="-0.47152">
        <ele>52.53</ele>
        <time>2018-10-28T15:33:54Z</time>
      </trkpt>
      <trkpt lat="49.26517" lon="-0.47151">
        <ele>52.53</ele>
        <time>2018-10-28T15:33:55Z</time>
      </trkpt>
      <trkpt lat="49.26517" lon="-0.47149">
        <ele>52.53</ele>
        <time>2018-10-28T15:33:56Z</time>
      </trkpt>
      <trkpt lat="49.2651" lon="-0.47123">
        <ele>53.01</ele>
        <time>2018-10-28T15:34:09Z</time>
      </trkpt>
      <trkpt lat="49.26503" lon="-0.47096">
        <ele>53.01</ele>
        <time>2018-10-28T15:34:22Z</time>
      </trkpt>
      <trkpt lat="49.26495" lon="-0.47074">
        <ele>54.45</ele>
        <time>2018-10-28T15:34:34Z</time>
      </trkpt>
      <trkpt lat="49.2649" lon="-0.47055">
        <ele>52.53</ele>
        <time>2018-10-28T15:34:44Z</time>
      </trkpt>
      <trkpt lat="49.26489" lon="-0.47054">
        <ele>55.89</ele>
        <time>2018-10-28T15:34:45Z</time>
      </trkpt>
      <trkpt lat="49.26489" lon="-0.47052">
        <ele>54.45</ele>
        <time>2018-10-28T15:34:46Z</time>
      </trkpt>
      <trkpt lat="49.26483" lon="-0.47036">
        <ele>56.86</ele>
        <time>2018-10-28T15:34:54Z</time>
      </trkpt>
      <trkpt lat="49.26481" lon="-0.47027">
        <ele>54.93</ele>
        <time>2018-10-28T15:34:59Z</time>
      </trkpt>
      <trkpt lat="49.26476" lon="-0.47011">
        <ele>51.09</ele>
        <time>2018-10-28T15:35:07Z</time>
      </trkpt>
      <trkpt lat="49.26476" lon="-0.47009">
        <ele>53.97</ele>
        <time>2018-10-28T15:35:08Z</time>
      </trkpt>
      <trkpt lat="49.26475" lon="-0.47005">
        <ele>54.93</ele>
        <time>2018-10-28T15:35:10Z</time>
      </trkpt>
      <trkpt lat="49.26474" lon="-0.47001">
        <ele>51.57</ele>
        <time>2018-10-28T15:35:12Z</time>
      </trkpt>
      <trkpt lat="49.26471" lon="-0.46994">
        <ele>53.97</ele>
        <time>2018-10-28T15:35:16Z</time>
      </trkpt>
      <trkpt lat="49.26468" lon="-0.46985">
        <ele>55.41</ele>
        <time>2018-10-28T15:35:21Z</time>
      </trkpt>
      <trkpt lat="49.26458" lon="-0.46946">
        <ele>55.41</ele>
        <time>2018-10-28T15:35:40Z</time>
      </trkpt>
      <trkpt lat="49.26451" lon="-0.46922">
        <ele>56.86</ele>
        <time>2018-10-28T15:35:52Z</time>
      </trkpt>
      <trkpt lat="49.2645" lon="-0.46918">
        <ele>55.41</ele>
        <time>2018-10-28T15:35:54Z</time>
      </trkpt>
      <trkpt lat="49.26449" lon="-0.46915">
        <ele>53.97</ele>
        <time>2018-10-28T15:35:56Z</time>
      </trkpt>
      <trkpt lat="49.26446" lon="-0.46904">
        <ele>55.41</ele>
        <time>2018-10-28T15:36:01Z</time>
      </trkpt>
      <trkpt lat="49.26445" lon="-0.46901">
        <ele>56.86</ele>
        <time>2018-10-28T15:36:03Z</time>
      </trkpt>
      <trkpt lat="49.26442" lon="-0.4689">
        <ele>53.01</ele>
        <time>2018-10-28T15:36:09Z</time>
      </trkpt>
      <trkpt lat="49.26441" lon="-0.46888">
        <ele>55.89</ele>
        <time>2018-10-28T15:36:10Z</time>
      </trkpt>
      <trkpt lat="49.26441" lon="-0.46886">
        <ele>57.34</ele>
        <time>2018-10-28T15:36:11Z</time>
      </trkpt>
      <trkpt lat="49.26437" lon="-0.46875">
        <ele>53.01</ele>
        <time>2018-10-28T15:36:17Z</time>
      </trkpt>
      <trkpt lat="49.26437" lon="-0.46873">
        <ele>53.01</ele>
        <time>2018-10-28T15:36:18Z</time>
      </trkpt>
      <trkpt lat="49.26436" lon="-0.46871">
        <ele>56.86</ele>
        <time>2018-10-28T15:36:19Z</time>
      </trkpt>
      <trkpt lat="49.26436" lon="-0.46869">
        <ele>56.37</ele>
        <time>2018-10-28T15:36:20Z</time>
      </trkpt>
      <trkpt lat="49.26431" lon="-0.46853">
        <ele>56.37</ele>
        <time>2018-10-28T15:36:28Z</time>
      </trkpt>
      <trkpt lat="49.26424" lon="-0.46831">
        <ele>56.37</ele>
        <time>2018-10-28T15:36:39Z</time>
      </trkpt>
      <trkpt lat="49.26421" lon="-0.46819">
        <ele>57.34</ele>
        <time>2018-10-28T15:36:46Z</time>
      </trkpt>
      <trkpt lat="49.2642" lon="-0.46817">
        <ele>55.89</ele>
        <time>2018-10-28T15:36:47Z</time>
      </trkpt>
      <trkpt lat="49.2642" lon="-0.46814">
        <ele>56.37</ele>
        <time>2018-10-28T15:36:48Z</time>
      </trkpt>
      <trkpt lat="49.26414" lon="-0.46791">
        <ele>55.41</ele>
        <time>2018-10-28T15:37:03Z</time>
      </trkpt>
      <trkpt lat="49.26413" lon="-0.46789">
        <ele>56.86</ele>
        <time>2018-10-28T15:37:08Z</time>
      </trkpt>
      <trkpt lat="49.26404" lon="-0.46759">
        <ele>57.82</ele>
        <time>2018-10-28T15:37:24Z</time>
      </trkpt>
      <trkpt lat="49.26404" lon="-0.46756">
        <ele>55.89</ele>
        <time>2018-10-28T15:37:26Z</time>
      </trkpt>
      <trkpt lat="49.26403" lon="-0.46754">
        <ele>53.97</ele>
        <time>2018-10-28T15:37:27Z</time>
      </trkpt>
      <trkpt lat="49.26403" lon="-0.46752">
        <ele>52.53</ele>
        <time>2018-10-28T15:37:28Z</time>
      </trkpt>
      <trkpt lat="49.26402" lon="-0.46751">
        <ele>52.53</ele>
        <time>2018-10-28T15:37:29Z</time>
      </trkpt>
      <trkpt lat="49.26401" lon="-0.46748">
        <ele>55.89</ele>
        <time>2018-10-28T15:37:31Z</time>
      </trkpt>
      <trkpt lat="49.264" lon="-0.46744">
        <ele>56.37</ele>
        <time>2018-10-28T15:37:33Z</time>
      </trkpt>
      <trkpt lat="49.26389" lon="-0.46704">
        <ele>53.49</ele>
        <time>2018-10-28T15:37:53Z</time>
      </trkpt>
      <trkpt lat="49.26388" lon="-0.467">
        <ele>55.41</ele>
        <time>2018-10-28T15:37:55Z</time>
      </trkpt>
      <trkpt lat="49.26377" lon="-0.46661">
        <ele>56.86</ele>
        <time>2018-10-28T15:38:14Z</time>
      </trkpt>
      <trkpt lat="49.26371" lon="-0.46642">
        <ele>54.45</ele>
        <time>2018-10-28T15:38:24Z</time>
      </trkpt>
      <trkpt lat="49.26369" lon="-0.46636">
        <ele>56.37</ele>
        <time>2018-10-28T15:38:27Z</time>
      </trkpt>
      <trkpt lat="49.26359" lon="-0.46601">
        <ele>55.89</ele>
        <time>2018-10-28T15:38:45Z</time>
      </trkpt>
      <trkpt lat="49.26356" lon="-0.46593">
        <ele>56.37</ele>
        <time>2018-10-28T15:38:50Z</time>
      </trkpt>
      <trkpt lat="49.2635" lon="-0.46571">
        <ele>55.41</ele>
        <time>2018-10-28T15:39:01Z</time>
      </trkpt>
      <trkpt lat="49.26343" lon="-0.46544">
        <ele>55.41</ele>
        <time>2018-10-28T15:39:14Z</time>
      </trkpt>
      <trkpt lat="49.26342" lon="-0.46542">
        <ele>55.41</ele>
        <time>2018-10-28T15:39:15Z</time>
      </trkpt>
      <trkpt lat="49.26337" lon="-0.46526">
        <ele>57.34</ele>
        <time>2018-10-28T15:39:23Z</time>
      </trkpt>
      <trkpt lat="49.26328" lon="-0.46493">
        <ele>55.41</ele>
        <time>2018-10-28T15:39:40Z</time>
      </trkpt>
      <trkpt lat="49.26326" lon="-0.46487">
        <ele>53.01</ele>
        <time>2018-10-28T15:39:43Z</time>
      </trkpt>
      <trkpt lat="49.26325" lon="-0.46484">
        <ele>54.93</ele>
        <time>2018-10-28T15:39:45Z</time>
      </trkpt>
      <trkpt lat="49.26325" lon="-0.46482">
        <ele>51.57</ele>
        <time>2018-10-28T15:39:47Z</time>
      </trkpt>
      <trkpt lat="49.26325" lon="-0.46483">
        <ele>50.61</ele>
        <time>2018-10-28T15:39:49Z</time>
      </trkpt>
      <trkpt lat="49.26324" lon="-0.46479">
        <ele>52.53</ele>
        <time>2018-10-28T15:39:53Z</time>
      </trkpt>
      <trkpt lat="49.26318" lon="-0.46458">
        <ele>53.49</ele>
        <time>2018-10-28T15:40:05Z</time>
      </trkpt>
      <trkpt lat="49.2631" lon="-0.46436">
        <ele>50.61</ele>
        <time>2018-10-28T15:40:18Z</time>
      </trkpt>
      <trkpt lat="49.26309" lon="-0.46431">
        <ele>52.53</ele>
        <time>2018-10-28T15:40:30Z</time>
      </trkpt>
      <trkpt lat="49.26308" lon="-0.4643">
        <ele>52.53</ele>
        <time>2018-10-28T15:40:31Z</time>
      </trkpt>
      <trkpt lat="49.26307" lon="-0.46428">
        <ele>52.53</ele>
        <time>2018-10-28T15:40:32Z</time>
      </trkpt>
      <trkpt lat="49.26306" lon="-0.46426">
        <ele>51.57</ele>
        <time>2018-10-28T15:40:33Z</time>
      </trkpt>
      <trkpt lat="49.26305" lon="-0.46425">
        <ele>51.57</ele>
        <time>2018-10-28T15:40:34Z</time>
      </trkpt>
      <trkpt lat="49.263" lon="-0.46415">
        <ele>53.01</ele>
        <time>2018-10-28T15:40:40Z</time>
      </trkpt>
      <trkpt lat="49.26299" lon="-0.4641">
        <ele>51.57</ele>
        <time>2018-10-28T15:40:43Z</time>
      </trkpt>
      <trkpt lat="49.26289" lon="-0.46378">
        <ele>50.13</ele>
        <time>2018-10-28T15:41:01Z</time>
      </trkpt>
      <trkpt lat="49.2628" lon="-0.46356">
        <ele>50.13</ele>
        <time>2018-10-28T15:41:14Z</time>
      </trkpt>
      <trkpt lat="49.26278" lon="-0.46348">
        <ele>50.61</ele>
        <time>2018-10-28T15:41:18Z</time>
      </trkpt>
      <trkpt lat="49.26268" lon="-0.4632">
        <ele>49.16</ele>
        <time>2018-10-28T15:41:34Z</time>
      </trkpt>
      <trkpt lat="49.26266" lon="-0.46316">
        <ele>51.09</ele>
        <time>2018-10-28T15:41:36Z</time>
      </trkpt>
      <trkpt lat="49.2626" lon="-0.46298">
        <ele>48.2</ele>
        <time>2018-10-28T15:41:46Z</time>
      </trkpt>
      <trkpt lat="49.26259" lon="-0.46297">
        <ele>48.2</ele>
        <time>2018-10-28T15:41:47Z</time>
      </trkpt>
      <trkpt lat="49.26256" lon="-0.46287">
        <ele>50.13</ele>
        <time>2018-10-28T15:41:52Z</time>
      </trkpt>
      <trkpt lat="49.26243" lon="-0.46251">
        <ele>47.24</ele>
        <time>2018-10-28T15:42:11Z</time>
      </trkpt>
      <trkpt lat="49.26239" lon="-0.4624">
        <ele>48.68</ele>
        <time>2018-10-28T15:42:17Z</time>
      </trkpt>
      <trkpt lat="49.26237" lon="-0.46236">
        <ele>47.72</ele>
        <time>2018-10-28T15:42:20Z</time>
      </trkpt>
      <trkpt lat="49.26235" lon="-0.46228">
        <ele>49.16</ele>
        <time>2018-10-28T15:42:25Z</time>
      </trkpt>
      <trkpt lat="49.26233" lon="-0.4622">
        <ele>49.65</ele>
        <time>2018-10-28T15:42:29Z</time>
      </trkpt>
      <trkpt lat="49.26229" lon="-0.46211">
        <ele>48.2</ele>
        <time>2018-10-28T15:42:33Z</time>
      </trkpt>
      <trkpt lat="49.26219" lon="-0.4618">
        <ele>47.72</ele>
        <time>2018-10-28T15:42:50Z</time>
      </trkpt>
      <trkpt lat="49.26214" lon="-0.46167">
        <ele>45.8</ele>
        <time>2018-10-28T15:42:57Z</time>
      </trkpt>
      <trkpt lat="49.26212" lon="-0.46158">
        <ele>46.28</ele>
        <time>2018-10-28T15:43:04Z</time>
      </trkpt>
      <trkpt lat="49.26211" lon="-0.46156">
        <ele>46.28</ele>
        <time>2018-10-28T15:43:05Z</time>
      </trkpt>
      <trkpt lat="49.26202" lon="-0.4613">
        <ele>46.28</ele>
        <time>2018-10-28T15:43:19Z</time>
      </trkpt>
      <trkpt lat="49.26191" lon="-0.46096">
        <ele>44.84</ele>
        <time>2018-10-28T15:43:36Z</time>
      </trkpt>
      <trkpt lat="49.26182" lon="-0.46069">
        <ele>46.28</ele>
        <time>2018-10-28T15:43:50Z</time>
      </trkpt>
      <trkpt lat="49.2618" lon="-0.46063">
        <ele>44.84</ele>
        <time>2018-10-28T15:43:54Z</time>
      </trkpt>
      <trkpt lat="49.26171" lon="-0.46038">
        <ele>45.32</ele>
        <time>2018-10-28T15:44:08Z</time>
      </trkpt>
      <trkpt lat="49.26167" lon="-0.46025">
        <ele>44.36</ele>
        <time>2018-10-28T15:44:15Z</time>
      </trkpt>
      <trkpt lat="49.26164" lon="-0.46015">
        <ele>41.95</ele>
        <time>2018-10-28T15:44:21Z</time>
      </trkpt>
      <trkpt lat="49.26163" lon="-0.46012">
        <ele>44.84</ele>
        <time>2018-10-28T15:44:23Z</time>
      </trkpt>
      <trkpt lat="49.26157" lon="-0.45996">
        <ele>42.44</ele>
        <time>2018-10-28T15:44:31Z</time>
      </trkpt>
      <trkpt lat="49.26151" lon="-0.45976">
        <ele>40.51</ele>
        <time>2018-10-28T15:44:42Z</time>
      </trkpt>
      <trkpt lat="49.26148" lon="-0.45969">
        <ele>41.95</ele>
        <time>2018-10-28T15:44:46Z</time>
      </trkpt>
      <trkpt lat="49.26142" lon="-0.45954">
        <ele>41.47</ele>
        <time>2018-10-28T15:44:54Z</time>
      </trkpt>
      <trkpt lat="49.26131" lon="-0.45926">
        <ele>39.07</ele>
        <time>2018-10-28T15:45:10Z</time>
      </trkpt>
      <trkpt lat="49.26112" lon="-0.45898">
        <ele>40.99</ele>
        <time>2018-10-28T15:45:28Z</time>
      </trkpt>
      <trkpt lat="49.26112" lon="-0.45898">
        <ele>40.99</ele>
        <time>2018-10-28T15:45:29Z</time>
      </trkpt>
      <trkpt lat="49.26109" lon="-0.45895">
        <ele>39.55</ele>
        <time>2018-10-28T15:45:32Z</time>
      </trkpt>
      <trkpt lat="49.26108" lon="-0.45893">
        <ele>38.59</ele>
        <time>2018-10-28T15:45:33Z</time>
      </trkpt>
      <trkpt lat="49.26107" lon="-0.45892">
        <ele>38.59</ele>
        <time>2018-10-28T15:45:34Z</time>
      </trkpt>
      <trkpt lat="49.26092" lon="-0.45878">
        <ele>40.03</ele>
        <time>2018-10-28T15:45:47Z</time>
      </trkpt>
      <trkpt lat="49.26084" lon="-0.45866">
        <ele>39.55</ele>
        <time>2018-10-28T15:45:55Z</time>
      </trkpt>
      <trkpt lat="49.26075" lon="-0.45835">
        <ele>39.55</ele>
        <time>2018-10-28T15:46:11Z</time>
      </trkpt>
      <trkpt lat="49.26071" lon="-0.45801">
        <ele>39.07</ele>
        <time>2018-10-28T15:46:28Z</time>
      </trkpt>
      <trkpt lat="49.26069" lon="-0.45777">
        <ele>39.07</ele>
        <time>2018-10-28T15:46:40Z</time>
      </trkpt>
      <trkpt lat="49.26066" lon="-0.45758">
        <ele>39.07</ele>
        <time>2018-10-28T15:46:50Z</time>
      </trkpt>
      <trkpt lat="49.26064" lon="-0.45731">
        <ele>39.07</ele>
        <time>2018-10-28T15:47:05Z</time>
      </trkpt>
      <trkpt lat="49.26063" lon="-0.4571">
        <ele>39.55</ele>
        <time>2018-10-28T15:47:17Z</time>
      </trkpt>
      <trkpt lat="49.26062" lon="-0.45694">
        <ele>37.63</ele>
        <time>2018-10-28T15:47:26Z</time>
      </trkpt>
      <trkpt lat="49.26062" lon="-0.45692">
        <ele>37.63</ele>
        <time>2018-10-28T15:47:27Z</time>
      </trkpt>
      <trkpt lat="49.26062" lon="-0.45689">
        <ele>37.63</ele>
        <time>2018-10-28T15:47:28Z</time>
      </trkpt>
      <trkpt lat="49.26062" lon="-0.45687">
        <ele>37.63</ele>
        <time>2018-10-28T15:47:29Z</time>
      </trkpt>
      <trkpt lat="49.26063" lon="-0.45684">
        <ele>38.59</ele>
        <time>2018-10-28T15:47:30Z</time>
      </trkpt>
      <trkpt lat="49.26063" lon="-0.45682">
        <ele>39.07</ele>
        <time>2018-10-28T15:47:31Z</time>
      </trkpt>
      <trkpt lat="49.26065" lon="-0.45676">
        <ele>39.07</ele>
        <time>2018-10-28T15:47:34Z</time>
      </trkpt>
      <trkpt lat="49.26065" lon="-0.45664">
        <ele>36.19</ele>
        <time>2018-10-28T15:47:40Z</time>
      </trkpt>
      <trkpt lat="49.26065" lon="-0.45662">
        <ele>36.19</ele>
        <time>2018-10-28T15:47:41Z</time>
      </trkpt>
      <trkpt lat="49.26063" lon="-0.45632">
        <ele>34.74</ele>
        <time>2018-10-28T15:47:56Z</time>
      </trkpt>
      <trkpt lat="49.26063" lon="-0.4563">
        <ele>40.99</ele>
        <time>2018-10-28T15:47:57Z</time>
      </trkpt>
      <trkpt lat="49.26062" lon="-0.45628">
        <ele>37.15</ele>
        <time>2018-10-28T15:47:58Z</time>
      </trkpt>
      <trkpt lat="49.26059" lon="-0.45605">
        <ele>36.67</ele>
        <time>2018-10-28T15:48:10Z</time>
      </trkpt>
      <trkpt lat="49.26055" lon="-0.4559">
        <ele>35.23</ele>
        <time>2018-10-28T15:48:17Z</time>
      </trkpt>
      <trkpt lat="49.26054" lon="-0.45586">
        <ele>33.78</ele>
        <time>2018-10-28T15:48:19Z</time>
      </trkpt>
      <trkpt lat="49.26055" lon="-0.45586">
        <ele>32.34</ele>
        <time>2018-10-28T15:48:20Z</time>
      </trkpt>
      <trkpt lat="49.26056" lon="-0.45585">
        <ele>32.34</ele>
        <time>2018-10-28T15:48:21Z</time>
      </trkpt>
      <trkpt lat="49.26057" lon="-0.45585">
        <ele>32.34</ele>
        <time>2018-10-28T15:48:22Z</time>
      </trkpt>
      <trkpt lat="49.26059" lon="-0.45584">
        <ele>34.26</ele>
        <time>2018-10-28T15:48:23Z</time>
      </trkpt>
      <trkpt lat="49.2606" lon="-0.45584">
        <ele>34.26</ele>
        <time>2018-10-28T15:48:24Z</time>
      </trkpt>
      <trkpt lat="49.26061" lon="-0.45583">
        <ele>34.26</ele>
        <time>2018-10-28T15:48:25Z</time>
      </trkpt>
      <trkpt lat="49.26062" lon="-0.45583">
        <ele>34.26</ele>
        <time>2018-10-28T15:48:26Z</time>
      </trkpt>
      <trkpt lat="49.26063" lon="-0.45581">
        <ele>34.74</ele>
        <time>2018-10-28T15:48:32Z</time>
      </trkpt>
    </trkseg>
  </trk>
</gpx>